Wetterdaten: Samstag, 03.10.2020
Datum Zeit Temp. Aussen Temp. o. S. Temp +5cm Feuchte Auss Luftdruck Regen Sonnenschein Regendauer Solar Windben Empfang
03.10.2020 00:00 15,7 C 15,0 C 13,9 C 89 % 989,1 hPa 0,0 l/m 0 min 0 min 0 W/m 0,0 km/h (0 Bft) 100,00 %
03.10.2020 00:02 15,7 C 15,0 C 13,9 C 89 % 989,1 hPa 0,0 l/m 0 min 0 min 0 W/m 0,0 km/h (0 Bft) 13,33 %
03.10.2020 00:04 15,7 C 14,4 C 13,9 C 89 % 989,1 hPa 0,0 l/m 0 min 0 min 0 W/m 3,2 km/h (1 Bft) 78,12 %
03.10.2020 00:07 15,7 C 14,4 C 13,9 C 89 % 989,1 hPa 0,0 l/m 0 min 0 min 0 W/m 6,4 km/h (2 Bft) 97,18 %
03.10.2020 00:08 15,7 C 14,4 C 13,9 C 89 % 989,1 hPa 0,0 l/m 0 min 0 min 0 W/m 0,0 km/h (0 Bft) 100,00 %
03.10.2020 00:10 15,7 C 14,4 C 13,9 C 89 % 989,1 hPa 0,0 l/m 0 min 0 min 0 W/m 0,0 km/h (0 Bft) 100,00 %
03.10.2020 00:12 15,7 C 14,4 C 13,9 C 89 % 989,2 hPa 0,0 l/m 0 min 0 min 0 W/m 12,9 km/h (3 Bft) 100,00 %
03.10.2020 00:14 15,7 C 14,4 C 13,9 C 89 % 989,1 hPa 0,0 l/m 0 min 0 min 0 W/m 6,4 km/h (2 Bft) 97,87 %
03.10.2020 00:16 15,7 C 14,4 C 13,9 C 89 % 989,1 hPa 0,0 l/m 0 min 0 min 0 W/m 0,0 km/h (0 Bft) 97,87 %
03.10.2020 00:18 15,7 C 14,4 C 13,9 C 89 % 989,0 hPa 0,0 l/m 0 min 0 min 0 W/m 0,0 km/h (0 Bft) 97,87 %
03.10.2020 00:20 15,7 C 14,4 C 13,9 C 89 % 989,1 hPa 0,0 l/m 0 min 0 min 0 W/m 6,4 km/h (2 Bft) 97,87 %
03.10.2020 00:22 15,7 C 14,4 C 13,9 C 89 % 989,1 hPa 0,0 l/m 0 min 0 min 0 W/m 6,4 km/h (2 Bft) 97,87 %
03.10.2020 00:24 15,7 C 14,4 C 13,9 C 89 % 989,1 hPa 0,0 l/m 0 min 0 min 0 W/m 6,4 km/h (2 Bft) 97,83 %
03.10.2020 00:26 15,7 C 14,4 C 13,9 C 90 % 989,0 hPa 0,0 l/m 0 min 0 min 0 W/m 6,4 km/h (2 Bft) 97,87 %
03.10.2020 00:28 15,6 C 14,4 C 13,9 C 90 % 989,1 hPa 0,0 l/m 0 min 0 min 0 W/m 0,0 km/h (0 Bft) 97,87 %
03.10.2020 00:30 15,6 C 15,0 C 13,9 C 90 % 989,1 hPa 0,0 l/m 0 min 0 min 0 W/m 0,0 km/h (0 Bft) 97,87 %
03.10.2020 00:32 15,6 C 15,0 C 13,9 C 90 % 989,0 hPa 0,0 l/m 0 min 0 min 0 W/m 6,4 km/h (2 Bft) 95,74 %
03.10.2020 00:34 15,6 C 14,4 C 13,9 C 90 % 989,0 hPa 0,0 l/m 0 min 0 min 0 W/m 9,7 km/h (2 Bft) 97,87 %
03.10.2020 00:36 15,6 C 14,4 C 13,9 C 90 % 988,9 hPa 0,0 l/m 0 min 0 min 0 W/m 0,0 km/h (0 Bft) 97,83 %
03.10.2020 00:38 15,6 C 14,4 C 13,9 C 90 % 988,9 hPa 0,0 l/m 0 min 0 min 0 W/m 0,0 km/h (0 Bft) 95,74 %
03.10.2020 00:40 15,6 C 14,4 C 13,9 C 90 % 988,9 hPa 0,0 l/m 0 min 2 min 0 W/m 0,0 km/h (0 Bft) 97,87 %
03.10.2020 00:42 15,6 C 14,4 C 13,9 C 90 % 988,9 hPa 0,0 l/m 0 min 0 min 0 W/m 0,0 km/h (0 Bft) 97,87 %
03.10.2020 00:44 15,6 C 14,4 C 13,9 C 90 % 988,8 hPa 0,0 l/m 0 min 0 min 0 W/m 0,0 km/h (0 Bft) 97,87 %
03.10.2020 00:46 15,6 C 14,4 C 13,9 C 90 % 988,7 hPa 0,0 l/m 0 min 0 min 0 W/m 6,4 km/h (2 Bft) 97,83 %
03.10.2020 00:48 15,6 C 14,4 C 13,9 C 90 % 988,7 hPa 0,0 l/m 0 min 0 min 0 W/m 0,0 km/h (0 Bft) 97,87 %
03.10.2020 00:50 15,6 C 14,4 C 13,9 C 90 % 988,6 hPa 0,0 l/m 0 min 0 min 0 W/m 0,0 km/h (0 Bft) 97,87 %
03.10.2020 00:52 15,6 C 14,4 C 13,9 C 90 % 988,5 hPa 0,0 l/m 0 min 0 min 0 W/m 6,4 km/h (2 Bft) 97,87 %
03.10.2020 00:54 15,6 C 14,4 C 13,9 C 90 % 988,6 hPa 0,0 l/m 0 min 0 min 0 W/m 0,0 km/h (0 Bft) 97,87 %
03.10.2020 00:56 15,6 C 14,4 C 13,9 C 90 % 988,5 hPa 0,0 l/m 0 min 0 min 0 W/m 0,0 km/h (0 Bft) 97,87 %
03.10.2020 00:58 15,5 C 14,4 C 13,9 C 90 % 988,5 hPa 0,0 l/m 0 min 0 min 0 W/m 0,0 km/h (0 Bft) 97,83 %
03.10.2020 01:00 15,5 C 14,4 C 13,9 C 90 % 988,5 hPa 0,0 l/m 0 min 0 min 0 W/m 0,0 km/h (0 Bft) 97,87 %
03.10.2020 01:02 15,5 C 14,4 C 13,9 C 90 % 988,5 hPa 0,0 l/m 0 min 0 min 0 W/m 0,0 km/h (0 Bft) 97,87 %
03.10.2020 01:04 15,4 C 14,4 C 13,9 C 90 % 988,6 hPa 0,0 l/m 0 min 0 min 0 W/m 0,0 km/h (0 Bft) 97,87 %
03.10.2020 01:06 15,5 C 14,4 C 13,9 C 90 % 988,6 hPa 0,0 l/m 0 min 0 min 0 W/m 9,7 km/h (2 Bft) 100,00 %
03.10.2020 01:08 15,4 C 14,4 C 13,9 C 90 % 988,7 hPa 0,0 l/m 0 min 0 min 0 W/m 9,7 km/h (2 Bft) 100,00 %
03.10.2020 01:10 15,4 C 14,4 C 13,9 C 90 % 988,6 hPa 0,0 l/m 0 min 0 min 0 W/m 0,0 km/h (0 Bft) 97,83 %
03.10.2020 01:12 15,4 C 14,4 C 13,9 C 90 % 988,7 hPa 0,0 l/m 0 min 0 min 0 W/m 0,0 km/h (0 Bft) 97,87 %
03.10.2020 01:14 15,4 C 14,4 C 13,9 C 90 % 988,7 hPa 0,0 l/m 0 min 0 min 0 W/m 0,0 km/h (0 Bft) 95,74 %
03.10.2020 01:16 15,4 C 14,4 C 13,9 C 91 % 988,8 hPa 0,0 l/m 0 min 0 min 0 W/m 0,0 km/h (0 Bft) 97,87 %
03.10.2020 01:18 15,4 C 14,4 C 13,9 C 90 % 988,7 hPa 0,0 l/m 0 min 0 min 0 W/m 0,0 km/h (0 Bft) 97,87 %
03.10.2020 01:20 15,4 C 14,4 C 13,9 C 90 % 988,7 hPa 0,0 l/m 0 min 0 min 0 W/m 0,0 km/h (0 Bft) 93,62 %
03.10.2020 01:22 15,4 C 14,4 C 13,9 C 90 % 988,7 hPa 0,0 l/m 0 min 0 min 0 W/m 0,0 km/h (0 Bft) 95,65 %
03.10.2020 01:24 15,4 C 14,4 C 13,9 C 90 % 988,7 hPa 0,0 l/m 0 min 0 min 0 W/m 0,0 km/h (0 Bft) 95,74 %
03.10.2020 01:26 15,4 C 14,4 C 13,9 C 90 % 988,7 hPa 0,0 l/m 0 min 0 min 0 W/m 3,2 km/h (1 Bft) 93,62 %
03.10.2020 01:28 15,4 C 14,4 C 13,9 C 90 % 988,7 hPa 0,0 l/m 0 min 0 min 0 W/m 0,0 km/h (0 Bft) 97,87 %
03.10.2020 01:30 15,4 C 14,4 C 13,9 C 90 % 988,8 hPa 0,0 l/m 0 min 2 min 0 W/m 0,0 km/h (0 Bft) 97,87 %
03.10.2020 01:32 15,4 C 14,4 C 13,9 C 90 % 988,9 hPa 0,0 l/m 0 min 0 min 0 W/m 0,0 km/h (0 Bft) 95,74 %
03.10.2020 01:34 15,3 C 14,4 C 13,3 C 91 % 988,9 hPa 0,0 l/m 0 min 0 min 0 W/m 0,0 km/h (0 Bft) 97,83 %
03.10.2020 01:36 15,3 C 14,4 C 13,3 C 91 % 988,9 hPa 0,0 l/m 0 min 0 min 0 W/m 0,0 km/h (0 Bft) 97,87 %
03.10.2020 01:38 15,3 C 14,4 C 13,3 C 91 % 988,9 hPa 0,0 l/m 0 min 0 min 0 W/m 0,0 km/h (0 Bft) 97,87 %
03.10.2020 01:40 15,3 C 14,4 C 13,3 C 91 % 988,9 hPa 0,0 l/m 0 min 0 min 0 W/m 0,0 km/h (0 Bft) 97,87 %
03.10.2020 01:42 15,3 C 14,4 C 13,3 C 91 % 988,8 hPa 0,0 l/m 0 min 0 min 0 W/m 0,0 km/h (0 Bft) 97,87 %
03.10.2020 01:44 15,3 C 14,4 C 13,3 C 91 % 988,8 hPa 0,0 l/m 0 min 0 min 0 W/m 0,0 km/h (0 Bft) 97,87 %
03.10.2020 01:46 15,3 C 14,4 C 13,3 C 91 % 988,7 hPa 0,0 l/m 0 min 0 min 0 W/m 0,0 km/h (0 Bft) 97,83 %
03.10.2020 01:48 15,3 C 14,4 C 13,3 C 91 % 988,6 hPa 0,0 l/m 0 min 0 min 0 W/m 0,0 km/h (0 Bft) 95,74 %
03.10.2020 01:50 15,3 C 14,4 C 13,3 C 91 % 988,6 hPa 0,0 l/m 0 min 0 min 0 W/m 0,0 km/h (0 Bft) 95,74 %
03.10.2020 01:52 15,3 C 14,4 C 13,3 C 91 % 988,7 hPa 0,0 l/m 0 min 0 min 0 W/m 0,0 km/h (0 Bft) 97,87 %
03.10.2020 01:54 15,3 C 14,4 C 13,3 C 91 % 988,6 hPa 0,0 l/m 0 min 0 min 0 W/m 0,0 km/h (0 Bft) 97,87 %
03.10.2020 01:56 15,3 C 14,4 C 13,3 C 91 % 988,6 hPa 0,0 l/m 0 min 0 min 0 W/m 0,0 km/h (0 Bft) 97,83 %
03.10.2020 01:58 15,2 C 14,4 C 13,3 C 91 % 988,5 hPa 0,0 l/m 0 min 0 min 0 W/m 6,4 km/h (2 Bft) 97,87 %
03.10.2020 02:00 15,2 C 14,4 C 13,3 C 91 % 988,4 hPa 0,0 l/m 0 min 0 min 0 W/m 6,4 km/h (2 Bft) 97,87 %
03.10.2020 02:02 15,2 C 14,4 C 13,3 C 91 % 988,4 hPa 0,0 l/m 0 min 0 min 0 W/m 0,0 km/h (0 Bft) 100,00 %
03.10.2020 02:04 15,2 C 14,4 C 13,3 C 91 % 988,4 hPa 0,0 l/m 0 min 0 min 0 W/m 3,2 km/h (1 Bft) 100,00 %
03.10.2020 02:06 15,2 C 14,4 C 13,3 C 91 % 988,5 hPa 0,0 l/m 0 min 0 min 0 W/m 0,0 km/h (0 Bft) 97,87 %
03.10.2020 02:08 15,2 C 13,9 C 13,3 C 91 % 988,4 hPa 0,0 l/m 0 min 0 min 0 W/m 0,0 km/h (0 Bft) 95,65 %
03.10.2020 02:10 15,2 C 13,9 C 13,3 C 91 % 988,4 hPa 0,0 l/m 0 min 0 min 0 W/m 0,0 km/h (0 Bft) 95,74 %
03.10.2020 02:12 15,2 C 13,9 C 13,3 C 91 % 988,5 hPa 0,0 l/m 0 min 0 min 0 W/m 3,2 km/h (1 Bft) 97,87 %
03.10.2020 02:14 15,2 C 13,9 C 13,3 C 91 % 988,4 hPa 0,0 l/m 0 min 0 min 0 W/m 0,0 km/h (0 Bft) 97,87 %
03.10.2020 02:16 15,1 C 13,9 C 13,3 C 91 % 988,3 hPa 0,0 l/m 0 min 0 min 0 W/m 0,0 km/h (0 Bft) 97,87 %
03.10.2020 02:18 15,1 C 13,9 C 13,3 C 91 % 988,2 hPa 0,0 l/m 0 min 0 min 0 W/m 0,0 km/h (0 Bft) 97,87 %
03.10.2020 02:20 15,1 C 13,9 C 13,3 C 91 % 988,2 hPa 0,0 l/m 0 min 0 min 0 W/m 0,0 km/h (0 Bft) 97,83 %
03.10.2020 02:22 15,1 C 13,9 C 13,3 C 91 % 988,3 hPa 0,0 l/m 0 min 0 min 0 W/m 0,0 km/h (0 Bft) 97,87 %
03.10.2020 02:24 15,1 C 13,9 C 13,3 C 91 % 988,3 hPa 0,0 l/m 0 min 0 min 0 W/m 0,0 km/h (0 Bft) 97,87 %
03.10.2020 02:26 15,1 C 13,9 C 13,3 C 91 % 988,2 hPa 0,0 l/m 0 min 0 min 0 W/m 0,0 km/h (0 Bft) 97,87 %
03.10.2020 02:28 15,1 C 13,9 C 13,3 C 91 % 988,1 hPa 0,0 l/m 0 min 0 min 0 W/m 0,0 km/h (0 Bft) 97,87 %
03.10.2020 02:30 15,1 C 13,9 C 13,3 C 91 % 988,1 hPa 0,0 l/m 0 min 0 min 0 W/m 0,0 km/h (0 Bft) 97,87 %
03.10.2020 02:32 15,1 C 13,9 C 13,3 C 91 % 988,0 hPa 0,0 l/m 0 min 0 min 0 W/m 0,0 km/h (0 Bft) 97,83 %
03.10.2020 02:34 15,1 C 13,9 C 13,3 C 91 % 988,0 hPa 0,0 l/m 0 min 0 min 0 W/m 0,0 km/h (0 Bft) 95,74 %
03.10.2020 02:36 15,0 C 13,9 C 13,3 C 91 % 988,0 hPa 0,0 l/m 0 min 0 min 0 W/m 0,0 km/h (0 Bft) 97,87 %
03.10.2020 02:38 15,0 C 13,9 C 13,3 C 91 % 987,9 hPa 0,0 l/m 0 min 0 min 0 W/m 0,0 km/h (0 Bft) 97,87 %
03.10.2020 02:40 15,0 C 13,9 C 13,3 C 91 % 987,9 hPa 0,0 l/m 0 min 0 min 0 W/m 0,0 km/h (0 Bft) 97,87 %
03.10.2020 02:42 14,9 C 13,9 C 13,3 C 91 % 987,9 hPa 0,0 l/m 0 min 0 min 0 W/m 0,0 km/h (0 Bft) 95,74 %
03.10.2020 02:44 14,9 C 13,9 C 13,3 C 91 % 988,1 hPa 0,0 l/m 0 min 0 min 0 W/m 0,0 km/h (0 Bft) 97,83 %
03.10.2020 02:46 14,9 C 13,9 C 13,3 C 91 % 988,1 hPa 0,0 l/m 0 min 0 min 0 W/m 0,0 km/h (0 Bft) 97,87 %
03.10.2020 02:48 14,9 C 13,9 C 13,3 C 91 % 988,1 hPa 0,0 l/m 0 min 0 min 0 W/m 0,0 km/h (0 Bft) 95,74 %
03.10.2020 02:50 14,9 C 13,9 C 13,3 C 91 % 988,1 hPa 0,0 l/m 0 min 0 min 0 W/m 0,0 km/h (0 Bft) 97,87 %
03.10.2020 02:52 14,9 C 13,9 C 13,3 C 91 % 988,1 hPa 0,0 l/m 0 min 0 min 0 W/m 0,0 km/h (0 Bft) 97,87 %
03.10.2020 02:54 14,9 C 13,9 C 13,3 C 91 % 988,1 hPa 0,0 l/m 0 min 0 min 0 W/m 0,0 km/h (0 Bft) 97,87 %
03.10.2020 02:56 14,9 C 13,9 C 13,3 C 91 % 988,0 hPa 0,0 l/m 0 min 0 min 0 W/m 0,0 km/h (0 Bft) 97,83 %
03.10.2020 02:58 14,8 C 13,9 C 12,8 C 91 % 988,1 hPa 0,0 l/m 0 min 0 min 0 W/m 0,0 km/h (0 Bft) 100,00 %
03.10.2020 03:00 14,8 C 13,3 C 12,8 C 91 % 988,1 hPa 0,0 l/m 0 min 0 min 0 W/m 0,0 km/h (0 Bft) 100,00 %
03.10.2020 03:02 14,8 C 13,3 C 12,8 C 91 % 988,0 hPa 0,0 l/m 0 min 0 min 0 W/m 0,0 km/h (0 Bft) 100,00 %
03.10.2020 03:04 14,8 C 13,3 C 12,8 C 91 % 988,1 hPa 0,0 l/m 0 min 0 min 0 W/m 0,0 km/h (0 Bft) 100,00 %
03.10.2020 03:06 14,8 C 13,3 C 12,8 C 91 % 988,1 hPa 0,0 l/m 0 min 0 min 0 W/m 0,0 km/h (0 Bft) 100,00 %
03.10.2020 03:08 14,8 C 13,3 C 12,8 C 91 % 988,0 hPa 0,0 l/m 0 min 0 min 0 W/m 0,0 km/h (0 Bft) 100,00 %
03.10.2020 03:10 14,8 C 13,3 C 12,8 C 92 % 988,0 hPa 0,0 l/m 0 min 0 min 0 W/m 0,0 km/h (0 Bft) 97,87 %
03.10.2020 03:12 14,7 C 13,3 C 12,8 C 92 % 987,9 hPa 0,0 l/m 0 min 0 min 0 W/m 0,0 km/h (0 Bft) 97,87 %
03.10.2020 03:14 14,7 C 13,3 C 12,8 C 91 % 987,9 hPa 0,0 l/m 0 min 0 min 0 W/m 0,0 km/h (0 Bft) 100,00 %
03.10.2020 03:16 14,7 C 13,9 C 12,8 C 92 % 987,9 hPa 0,0 l/m 0 min 0 min 0 W/m 0,0 km/h (0 Bft) 97,87 %
03.10.2020 03:18 14,7 C 13,9 C 12,8 C 92 % 988,0 hPa 0,0 l/m 0 min 0 min 0 W/m 0,0 km/h (0 Bft) 100,00 %
03.10.2020 03:20 14,7 C 13,3 C 12,8 C 92 % 988,0 hPa 0,0 l/m 0 min 0 min 0 W/m 0,0 km/h (0 Bft) 100,00 %
03.10.2020 03:22 14,7 C 13,3 C 12,8 C 92 % 988,0 hPa 0,0 l/m 0 min 0 min 0 W/m 0,0 km/h (0 Bft) 100,00 %
03.10.2020 03:24 14,6 C 13,3 C 12,8 C 92 % 988,0 hPa 0,0 l/m 0 min 0 min 0 W/m 0,0 km/h (0 Bft) 100,00 %
03.10.2020 03:26 14,6 C 13,3 C 12,8 C 92 % 988,0 hPa 0,0 l/m 0 min 0 min 0 W/m 0,0 km/h (0 Bft) 95,74 %
03.10.2020 03:28 14,6 C 13,3 C 12,8 C 92 % 988,0 hPa 0,0 l/m 0 min 0 min 0 W/m 0,0 km/h (0 Bft) 95,74 %
03.10.2020 03:30 14,6 C 13,9 C 12,8 C 92 % 988,2 hPa 0,0 l/m 0 min 0 min 0 W/m 0,0 km/h (0 Bft) 97,83 %
03.10.2020 03:32 14,6 C 13,9 C 12,8 C 92 % 988,3 hPa 0,0 l/m 0 min 0 min 0 W/m 0,0 km/h (0 Bft) 97,87 %
03.10.2020 03:34 14,6 C 13,9 C 12,8 C 92 % 988,4 hPa 0,0 l/m 0 min 0 min 0 W/m 0,0 km/h (0 Bft) 95,74 %
03.10.2020 03:36 14,6 C 13,9 C 12,8 C 92 % 988,4 hPa 0,0 l/m 0 min 0 min 0 W/m 0,0 km/h (0 Bft) 97,87 %
03.10.2020 03:38 14,6 C 13,3 C 12,8 C 92 % 988,3 hPa 0,0 l/m 0 min 0 min 0 W/m 0,0 km/h (0 Bft) 97,87 %
03.10.2020 03:40 14,6 C 13,3 C 12,8 C 92 % 988,3 hPa 0,0 l/m 0 min 0 min 0 W/m 0,0 km/h (0 Bft) 97,87 %
03.10.2020 03:42 14,6 C 13,9 C 12,8 C 92 % 988,4 hPa 0,0 l/m 0 min 0 min 0 W/m 0,0 km/h (0 Bft) 97,83 %
03.10.2020 03:44 14,6 C 13,9 C 12,8 C 92 % 988,4 hPa 0,0 l/m 0 min 0 min 0 W/m 3,2 km/h (1 Bft) 97,87 %
03.10.2020 03:46 14,5 C 13,9 C 12,8 C 92 % 988,4 hPa 0,0 l/m 0 min 0 min 0 W/m 0,0 km/h (0 Bft) 54,55 %
03.10.2020 03:48 14,5 C 13,3 C 12,8 C 92 % 988,4 hPa 0,0 l/m 0 min 0 min 0 W/m 0,0 km/h (0 Bft) 97,87 %
03.10.2020 03:50 14,5 C 13,3 C 12,8 C 92 % 988,3 hPa 0,0 l/m 0 min 0 min 0 W/m 0,0 km/h (0 Bft) 97,87 %
03.10.2020 03:52 14,5 C 13,3 C 12,8 C 92 % 988,3 hPa 0,0 l/m 0 min 0 min 0 W/m 0,0 km/h (0 Bft) 97,87 %
03.10.2020 03:54 14,5 C 13,9 C 12,8 C 92 % 988,2 hPa 0,0 l/m 0 min 0 min 0 W/m 0,0 km/h (0 Bft) 95,65 %
03.10.2020 03:56 14,4 C 13,9 C 12,8 C 92 % 988,2 hPa 0,0 l/m 0 min 0 min 0 W/m 0,0 km/h (0 Bft) 95,74 %
03.10.2020 03:58 14,4 C 13,9 C 12,8 C 92 % 988,3 hPa 0,0 l/m 0 min 0 min 0 W/m 0,0 km/h (0 Bft) 95,74 %
03.10.2020 04:00 14,4 C 13,9 C 12,8 C 92 % 988,2 hPa 0,0 l/m 0 min 0 min 0 W/m 0,0 km/h (0 Bft) 95,74 %
03.10.2020 04:02 14,4 C 13,9 C 12,8 C 92 % 988,2 hPa 0,0 l/m 0 min 0 min 0 W/m 0,0 km/h (0 Bft) 100,00 %
03.10.2020 04:04 14,4 C 13,3 C 12,8 C 92 % 988,2 hPa 0,0 l/m 0 min 0 min 0 W/m 0,0 km/h (0 Bft) 95,74 %
03.10.2020 04:06 14,4 C 13,9 C 12,8 C 92 % 988,1 hPa 0,0 l/m 0 min 0 min 0 W/m 0,0 km/h (0 Bft) 95,74 %
03.10.2020 04:08 14,4 C 13,3 C 12,8 C 92 % 988,1 hPa 0,0 l/m 0 min 0 min 0 W/m 0,0 km/h (0 Bft) 93,10 %
03.10.2020 04:10 14,4 C 13,3 C 12,8 C 92 % 988,1 hPa 0,0 l/m 0 min 0 min 0 W/m 0,0 km/h (0 Bft) 97,14 %
03.10.2020 04:12 14,4 C 13,3 C 12,8 C 92 % 987,9 hPa 0,0 l/m 0 min 0 min 0 W/m 6,4 km/h (2 Bft) 93,62 %
03.10.2020 04:14 14,4 C 13,3 C 12,8 C 92 % 987,9 hPa 0,0 l/m 0 min 0 min 0 W/m 3,2 km/h (1 Bft) 95,74 %
03.10.2020 04:16 14,4 C 13,3 C 12,8 C 92 % 987,7 hPa 0,0 l/m 0 min 0 min 0 W/m 0,0 km/h (0 Bft) 95,74 %
03.10.2020 04:18 14,3 C 13,3 C 12,8 C 92 % 987,8 hPa 0,0 l/m 0 min 0 min 0 W/m 0,0 km/h (0 Bft) 95,74 %
03.10.2020 04:20 14,3 C 13,3 C 12,8 C 92 % 987,8 hPa 0,0 l/m 0 min 0 min 0 W/m 0,0 km/h (0 Bft) 93,62 %
03.10.2020 04:22 14,3 C 13,3 C 12,8 C 92 % 987,9 hPa 0,0 l/m 0 min 0 min 0 W/m 0,0 km/h (0 Bft) 95,65 %
03.10.2020 04:24 14,3 C 13,3 C 12,8 C 92 % 987,9 hPa 0,0 l/m 0 min 0 min 0 W/m 0,0 km/h (0 Bft) 97,87 %
03.10.2020 04:26 14,3 C 13,3 C 12,8 C 93 % 988,0 hPa 0,0 l/m 0 min 0 min 0 W/m 0,0 km/h (0 Bft) 95,74 %
03.10.2020 04:28 14,3 C 13,3 C 12,8 C 93 % 988,1 hPa 0,0 l/m 0 min 0 min 0 W/m 0,0 km/h (0 Bft) 93,62 %
03.10.2020 04:30 14,3 C 13,3 C 12,8 C 93 % 988,0 hPa 0,0 l/m 0 min 0 min 0 W/m 0,0 km/h (0 Bft) 97,87 %
03.10.2020 04:32 14,3 C 13,3 C 12,8 C 93 % 987,9 hPa 0,0 l/m 0 min 0 min 0 W/m 0,0 km/h (0 Bft) 97,92 %
03.10.2020 04:34 14,3 C 13,3 C 12,8 C 93 % 988,0 hPa 0,0 l/m 0 min 0 min 0 W/m 0,0 km/h (0 Bft) 97,83 %
03.10.2020 04:36 14,3 C 13,3 C 12,8 C 93 % 988,1 hPa 0,0 l/m 0 min 0 min 0 W/m 0,0 km/h (0 Bft) 97,87 %
03.10.2020 04:38 14,3 C 13,3 C 12,8 C 93 % 988,2 hPa 0,0 l/m 0 min 0 min 0 W/m 0,0 km/h (0 Bft) 97,87 %
03.10.2020 04:40 14,3 C 13,3 C 12,8 C 93 % 988,2 hPa 0,0 l/m 0 min 0 min 0 W/m 0,0 km/h (0 Bft) 97,87 %
03.10.2020 04:42 14,3 C 13,3 C 12,8 C 93 % 988,3 hPa 0,0 l/m 0 min 0 min 0 W/m 0,0 km/h (0 Bft) 100,00 %
03.10.2020 04:44 14,3 C 13,3 C 12,8 C 93 % 988,3 hPa 0,0 l/m 0 min 0 min 0 W/m 0,0 km/h (0 Bft) 97,83 %
03.10.2020 04:46 14,3 C 13,3 C 12,8 C 93 % 988,4 hPa 0,0 l/m 0 min 0 min 0 W/m 0,0 km/h (0 Bft) 97,87 %
03.10.2020 04:48 14,3 C 13,3 C 12,8 C 93 % 988,5 hPa 0,0 l/m 0 min 0 min 0 W/m 0,0 km/h (0 Bft) 100,00 %
03.10.2020 04:50 14,3 C 13,3 C 12,8 C 93 % 988,5 hPa 0,0 l/m 0 min 0 min 0 W/m 0,0 km/h (0 Bft) 100,00 %
03.10.2020 04:52 14,3 C 13,3 C 12,8 C 93 % 988,5 hPa 0,0 l/m 0 min 0 min 0 W/m 0,0 km/h (0 Bft) 97,87 %
03.10.2020 04:54 14,3 C 13,3 C 12,8 C 93 % 988,5 hPa 0,0 l/m 0 min 0 min 0 W/m 0,0 km/h (0 Bft) 95,74 %
03.10.2020 04:56 14,3 C 13,3 C 12,8 C 93 % 988,5 hPa 0,0 l/m 0 min 0 min 0 W/m 0,0 km/h (0 Bft) 100,00 %
03.10.2020 04:58 14,3 C 13,3 C 12,8 C 93 % 988,4 hPa 0,0 l/m 0 min 0 min 0 W/m 0,0 km/h (0 Bft) 100,00 %
03.10.2020 05:00 14,3 C 13,3 C 12,8 C 93 % 988,3 hPa 0,0 l/m 0 min 0 min 0 W/m 0,0 km/h (0 Bft) 95,74 %
03.10.2020 05:02 14,3 C 13,3 C 12,8 C 93 % 988,4 hPa 0,0 l/m 0 min 0 min 0 W/m 0,0 km/h (0 Bft) 97,87 %
03.10.2020 05:04 14,3 C 13,3 C 12,8 C 93 % 988,5 hPa 0,0 l/m 0 min 0 min 0 W/m 0,0 km/h (0 Bft) 97,87 %
03.10.2020 05:06 14,3 C 13,3 C 12,8 C 93 % 988,5 hPa 0,0 l/m 0 min 0 min 0 W/m 12,9 km/h (3 Bft) 97,87 %
03.10.2020 05:08 14,3 C 13,3 C 12,8 C 93 % 988,5 hPa 0,0 l/m 0 min 0 min 0 W/m 0,0 km/h (0 Bft) 97,83 %
03.10.2020 05:10 14,3 C 13,3 C 12,8 C 93 % 988,6 hPa 0,0 l/m 0 min 0 min 0 W/m 0,0 km/h (0 Bft) 97,87 %
03.10.2020 05:12 14,3 C 13,3 C 12,8 C 93 % 988,6 hPa 0,0 l/m 0 min 0 min 0 W/m 0,0 km/h (0 Bft) 97,87 %
03.10.2020 05:14 14,3 C 13,3 C 12,8 C 93 % 988,6 hPa 0,0 l/m 0 min 0 min 0 W/m 0,0 km/h (0 Bft) 97,87 %
03.10.2020 05:16 14,3 C 13,3 C 12,8 C 93 % 988,7 hPa 0,0 l/m 0 min 0 min 0 W/m 0,0 km/h (0 Bft) 97,87 %
03.10.2020 05:18 14,3 C 13,3 C 12,8 C 93 % 988,6 hPa 0,0 l/m 0 min 0 min 0 W/m 0,0 km/h (0 Bft) 97,87 %
03.10.2020 05:20 14,3 C 12,8 C 12,8 C 93 % 988,6 hPa 0,0 l/m 0 min 0 min 0 W/m 0,0 km/h (0 Bft) 97,83 %
03.10.2020 05:22 14,3 C 12,8 C 12,8 C 93 % 988,7 hPa 0,0 l/m 0 min 0 min 0 W/m 0,0 km/h (0 Bft) 95,74 %
03.10.2020 05:24 14,3 C 12,8 C 12,8 C 93 % 988,6 hPa 0,0 l/m 0 min 0 min 0 W/m 0,0 km/h (0 Bft) 97,87 %
03.10.2020 05:26 14,3 C 12,8 C 12,2 C 93 % 988,5 hPa 0,0 l/m 0 min 0 min 0 W/m 0,0 km/h (0 Bft) 97,87 %
03.10.2020 05:28 14,3 C 12,8 C 12,2 C 93 % 988,5 hPa 0,0 l/m 0 min 0 min 0 W/m 0,0 km/h (0 Bft) 97,87 %
03.10.2020 05:30 14,3 C 12,8 C 12,2 C 93 % 988,6 hPa 0,0 l/m 0 min 0 min 0 W/m 0,0 km/h (0 Bft) 95,74 %
03.10.2020 05:32 14,2 C 12,8 C 12,2 C 93 % 988,5 hPa 0,0 l/m 0 min 0 min 0 W/m 0,0 km/h (0 Bft) 97,83 %
03.10.2020 05:34 14,2 C 12,8 C 12,2 C 93 % 988,5 hPa 0,0 l/m 0 min 0 min 0 W/m 0,0 km/h (0 Bft) 97,92 %
03.10.2020 05:36 14,2 C 12,8 C 12,2 C 93 % 988,5 hPa 0,0 l/m 0 min 0 min 0 W/m 0,0 km/h (0 Bft) 97,87 %
03.10.2020 05:38 14,1 C 12,8 C 12,2 C 93 % 988,6 hPa 0,0 l/m 0 min 0 min 0 W/m 0,0 km/h (0 Bft) 97,87 %
03.10.2020 05:40 14,1 C 12,8 C 12,2 C 93 % 988,5 hPa 0,0 l/m 0 min 0 min 0 W/m 0,0 km/h (0 Bft) 97,87 %
03.10.2020 05:42 14,1 C 12,8 C 12,2 C 93 % 988,3 hPa 0,0 l/m 0 min 0 min 0 W/m 0,0 km/h (0 Bft) 97,83 %
03.10.2020 05:44 14,1 C 12,8 C 12,2 C 93 % 988,1 hPa 0,0 l/m 0 min 0 min 0 W/m 0,0 km/h (0 Bft) 97,87 %
03.10.2020 05:46 14,1 C 12,8 C 12,2 C 93 % 988,2 hPa 0,0 l/m 0 min 0 min 0 W/m 0,0 km/h (0 Bft) 95,74 %
03.10.2020 05:48 14,1 C 12,8 C 12,2 C 93 % 988,2 hPa 0,0 l/m 0 min 0 min 0 W/m 0,0 km/h (0 Bft) 97,87 %
03.10.2020 05:50 14,0 C 12,8 C 12,2 C 93 % 988,2 hPa 0,0 l/m 0 min 0 min 0 W/m 0,0 km/h (0 Bft) 97,87 %
03.10.2020 05:52 14,0 C 12,8 C 12,2 C 93 % 988,3 hPa 0,0 l/m 0 min 0 min 0 W/m 0,0 km/h (0 Bft) 100,00 %
03.10.2020 05:54 14,0 C 12,8 C 12,2 C 93 % 988,3 hPa 0,0 l/m 0 min 0 min 0 W/m 0,0 km/h (0 Bft) 100,00 %
03.10.2020 05:56 13,9 C 12,8 C 12,2 C 93 % 988,3 hPa 0,0 l/m 0 min 0 min 0 W/m 0,0 km/h (0 Bft) 100,00 %
03.10.2020 05:58 13,9 C 12,8 C 12,2 C 93 % 988,4 hPa 0,0 l/m 0 min 0 min 0 W/m 0,0 km/h (0 Bft) 100,00 %
03.10.2020 06:00 13,9 C 12,8 C 12,2 C 93 % 988,4 hPa 0,0 l/m 0 min 0 min 0 W/m 0,0 km/h (0 Bft) 95,74 %
03.10.2020 06:02 13,9 C 12,8 C 12,2 C 93 % 988,4 hPa 0,0 l/m 0 min 0 min 0 W/m 0,0 km/h (0 Bft) 97,87 %
03.10.2020 06:04 13,9 C 12,8 C 12,2 C 93 % 988,4 hPa 0,0 l/m 0 min 0 min 0 W/m 0,0 km/h (0 Bft) 100,00 %
03.10.2020 06:08 13,9 C 12,8 C 12,2 C 93 % 988,3 hPa 0,0 l/m 0 min 0 min 0 W/m 0,0 km/h (0 Bft) 97,89 %
03.10.2020 06:10 13,9 C 12,8 C 12,2 C 93 % 988,4 hPa 0,0 l/m 0 min 0 min 0 W/m 0,0 km/h (0 Bft) 100,00 %
03.10.2020 06:12 13,8 C 12,8 C 12,2 C 94 % 988,4 hPa 0,0 l/m 0 min 0 min 0 W/m 0,0 km/h (0 Bft) 97,83 %
03.10.2020 06:14 13,8 C 12,8 C 12,2 C 94 % 988,4 hPa 0,0 l/m 0 min 0 min 0 W/m 0,0 km/h (0 Bft) 97,87 %
03.10.2020 06:16 13,8 C 12,8 C 12,2 C 93 % 988,4 hPa 0,0 l/m 0 min 0 min 0 W/m 0,0 km/h (0 Bft) 100,00 %
03.10.2020 06:18 13,8 C 12,8 C 12,2 C 93 % 988,4 hPa 0,0 l/m 0 min 0 min 0 W/m 0,0 km/h (0 Bft) 100,00 %
03.10.2020 06:20 13,8 C 12,8 C 12,2 C 94 % 988,4 hPa 0,0 l/m 0 min 0 min 0 W/m 0,0 km/h (0 Bft) 100,00 %
03.10.2020 06:22 13,8 C 12,8 C 12,2 C 94 % 988,4 hPa 0,0 l/m 0 min 0 min 0 W/m 0,0 km/h (0 Bft) 100,00 %
03.10.2020 06:24 13,8 C 12,8 C 12,2 C 94 % 988,4 hPa 0,0 l/m 0 min 0 min 0 W/m 0,0 km/h (0 Bft) 100,00 %
03.10.2020 06:26 13,8 C 12,8 C 12,2 C 94 % 988,5 hPa 0,0 l/m 0 min 0 min 0 W/m 0,0 km/h (0 Bft) 100,00 %
03.10.2020 06:28 13,8 C 12,8 C 12,2 C 94 % 988,5 hPa 0,0 l/m 0 min 0 min 0 W/m 3,2 km/h (1 Bft) 100,00 %
03.10.2020 06:30 13,7 C 12,8 C 12,2 C 94 % 988,5 hPa 0,0 l/m 0 min 0 min 0 W/m 0,0 km/h (0 Bft) 100,00 %
03.10.2020 06:32 13,7 C 12,8 C 12,2 C 94 % 988,5 hPa 0,0 l/m 0 min 0 min 0 W/m 0,0 km/h (0 Bft) 100,00 %
03.10.2020 06:34 13,7 C 12,8 C 12,2 C 94 % 988,5 hPa 0,0 l/m 0 min 0 min 0 W/m 0,0 km/h (0 Bft) 100,00 %
03.10.2020 06:36 13,7 C 12,8 C 12,2 C 94 % 988,4 hPa 0,0 l/m 0 min 0 min 0 W/m 0,0 km/h (0 Bft) 100,00 %
03.10.2020 06:38 13,7 C 12,8 C 12,2 C 94 % 988,4 hPa 0,0 l/m 0 min 0 min 0 W/m 0,0 km/h (0 Bft) 97,87 %
03.10.2020 06:40 13,7 C 12,8 C 12,2 C 94 % 988,4 hPa 0,0 l/m 0 min 0 min 0 W/m 0,0 km/h (0 Bft) 100,00 %
03.10.2020 06:42 13,7 C 12,8 C 12,2 C 94 % 988,4 hPa 0,0 l/m 0 min 0 min 0 W/m 0,0 km/h (0 Bft) 100,00 %
03.10.2020 06:44 13,7 C 12,8 C 12,2 C 94 % 988,4 hPa 0,0 l/m 0 min 0 min 0 W/m 0,0 km/h (0 Bft) 95,74 %
03.10.2020 06:46 13,7 C 12,8 C 12,2 C 94 % 988,3 hPa 0,0 l/m 0 min 0 min 0 W/m 0,0 km/h (0 Bft) 95,74 %
03.10.2020 06:48 13,7 C 12,8 C 12,2 C 94 % 988,4 hPa 0,0 l/m 0 min 0 min 0 W/m 0,0 km/h (0 Bft) 95,65 %
03.10.2020 06:50 13,7 C 12,8 C 12,2 C 94 % 988,4 hPa 0,0 l/m 0 min 0 min 0 W/m 0,0 km/h (0 Bft) 95,74 %
03.10.2020 06:52 13,6 C 12,8 C 12,2 C 94 % 988,4 hPa 0,0 l/m 0 min 2 min 0 W/m 0,0 km/h (0 Bft) 97,87 %
03.10.2020 06:54 13,6 C 12,8 C 12,2 C 94 % 988,3 hPa 0,0 l/m 0 min 0 min 0 W/m 0,0 km/h (0 Bft) 93,62 %
03.10.2020 06:56 13,6 C 12,8 C 12,2 C 94 % 988,2 hPa 0,0 l/m 0 min 0 min 0 W/m 0,0 km/h (0 Bft) 97,87 %
03.10.2020 06:58 13,6 C 12,8 C 12,2 C 94 % 988,2 hPa 0,0 l/m 0 min 0 min 0 W/m 0,0 km/h (0 Bft) 97,87 %
03.10.2020 07:00 13,6 C 12,2 C 12,2 C 94 % 988,2 hPa 0,0 l/m 0 min 0 min 0 W/m 0,0 km/h (0 Bft) 80,43 %
03.10.2020 07:02 13,6 C 12,2 C 12,2 C 94 % 988,2 hPa 0,0 l/m 0 min 0 min 0 W/m 3,2 km/h (1 Bft) 62,22 %
03.10.2020 07:04 13,6 C 12,2 C 12,2 C 94 % 988,1 hPa 0,0 l/m 0 min 0 min 0 W/m 0,0 km/h (0 Bft) 95,74 %
03.10.2020 07:06 13,6 C 12,2 C 12,2 C 95 % 988,1 hPa 0,0 l/m 0 min 0 min 0 W/m 0,0 km/h (0 Bft) 93,62 %
03.10.2020 07:08 13,6 C 12,2 C 12,2 C 95 % 988,2 hPa 0,0 l/m 0 min 0 min 0 W/m 0,0 km/h (0 Bft) 95,74 %
03.10.2020 07:10 13,6 C 12,2 C 12,2 C 95 % 988,2 hPa 0,0 l/m 0 min 0 min 0 W/m 3,2 km/h (1 Bft) 95,74 %
03.10.2020 07:12 13,6 C 12,8 C 12,2 C 95 % 988,4 hPa 0,0 l/m 0 min 0 min 0 W/m 0,0 km/h (0 Bft) 95,65 %
03.10.2020 07:14 13,6 C 12,8 C 12,2 C 95 % 988,4 hPa 0,0 l/m 0 min 0 min 0 W/m 0,0 km/h (0 Bft) 95,74 %
03.10.2020 07:16 13,6 C 12,8 C 12,2 C 94 % 988,4 hPa 0,0 l/m 0 min 0 min 0 W/m 0,0 km/h (0 Bft) 95,74 %
03.10.2020 07:18 13,6 C 12,8 C 12,2 C 95 % 988,4 hPa 0,0 l/m 0 min 0 min 0 W/m 0,0 km/h (0 Bft) 93,62 %
03.10.2020 07:20 13,6 C 12,8 C 12,2 C 95 % 988,5 hPa 0,0 l/m 0 min 0 min 0 W/m 0,0 km/h (0 Bft) 95,74 %
03.10.2020 07:22 13,6 C 12,8 C 12,2 C 95 % 988,5 hPa 0,0 l/m 0 min 0 min 0 W/m 0,0 km/h (0 Bft) 95,65 %
03.10.2020 07:24 13,6 C 12,2 C 12,2 C 95 % 988,5 hPa 0,0 l/m 0 min 0 min 0 W/m 0,0 km/h (0 Bft) 95,74 %
03.10.2020 07:26 13,6 C 12,2 C 12,2 C 95 % 988,5 hPa 0,0 l/m 0 min 0 min 0 W/m 0,0 km/h (0 Bft) 95,74 %
03.10.2020 07:28 13,6 C 12,2 C 12,2 C 95 % 988,4 hPa 0,0 l/m 0 min 0 min 0 W/m 0,0 km/h (0 Bft) 97,87 %
03.10.2020 07:30 13,6 C 12,2 C 12,2 C 95 % 988,4 hPa 0,0 l/m 0 min 0 min 0 W/m 0,0 km/h (0 Bft) 97,87 %
03.10.2020 07:32 13,6 C 12,2 C 12,2 C 95 % 988,3 hPa 0,0 l/m 0 min 0 min 0 W/m 0,0 km/h (0 Bft) 97,87 %
03.10.2020 07:34 13,6 C 12,2 C 12,2 C 95 % 988,4 hPa 0,0 l/m 0 min 0 min 0 W/m 0,0 km/h (0 Bft) 97,87 %
03.10.2020 07:36 13,6 C 12,2 C 12,2 C 95 % 988,4 hPa 0,0 l/m 0 min 2 min 0 W/m 0,0 km/h (0 Bft) 95,65 %
03.10.2020 07:38 13,6 C 12,2 C 12,2 C 95 % 988,8 hPa 0,0 l/m 0 min 2 min 0 W/m 0,0 km/h (0 Bft) 95,74 %
03.10.2020 07:40 13,6 C 12,8 C 12,2 C 95 % 988,8 hPa 0,0 l/m 0 min 2 min 0 W/m 22,5 km/h (4 Bft) 95,74 %
03.10.2020 07:42 13,6 C 12,8 C 12,2 C 95 % 988,9 hPa 0,0 l/m 0 min 2 min 0 W/m 3,2 km/h (1 Bft) 93,62 %
03.10.2020 07:44 13,6 C 12,8 C 12,2 C 95 % 988,9 hPa 0,0 l/m 0 min 0 min 0 W/m 0,0 km/h (0 Bft) 97,87 %
03.10.2020 07:46 13,6 C 12,8 C 12,2 C 95 % 988,9 hPa 0,0 l/m 0 min 0 min 0 W/m 6,4 km/h (2 Bft) 97,83 %
03.10.2020 07:48 13,6 C 12,8 C 12,2 C 95 % 988,8 hPa 0,0 l/m 0 min 0 min 0 W/m 0,0 km/h (0 Bft) 95,74 %
03.10.2020 07:50 13,6 C 12,8 C 12,2 C 95 % 988,9 hPa 0,0 l/m 0 min 0 min 0 W/m 0,0 km/h (0 Bft) 97,87 %
03.10.2020 07:52 13,6 C 12,8 C 12,2 C 95 % 988,9 hPa 0,0 l/m 0 min 0 min 0 W/m 0,0 km/h (0 Bft) 97,87 %
03.10.2020 07:54 13,6 C 12,2 C 12,2 C 95 % 988,9 hPa 0,0 l/m 0 min 0 min 0 W/m 0,0 km/h (0 Bft) 97,87 %
03.10.2020 07:56 13,6 C 12,2 C 12,2 C 95 % 988,8 hPa 0,0 l/m 0 min 0 min 0 W/m 0,0 km/h (0 Bft) 95,74 %
03.10.2020 07:58 13,6 C 12,2 C 12,2 C 95 % 988,7 hPa 0,0 l/m 0 min 0 min 0 W/m 0,0 km/h (0 Bft) 95,65 %
03.10.2020 08:00 13,6 C 12,2 C 12,2 C 95 % 988,8 hPa 0,0 l/m 0 min 0 min 0 W/m 0,0 km/h (0 Bft) 95,74 %
03.10.2020 08:02 13,6 C 12,2 C 12,2 C 95 % 988,9 hPa 0,0 l/m 0 min 2 min 0 W/m 0,0 km/h (0 Bft) 95,74 %
03.10.2020 08:04 13,6 C 12,2 C 12,2 C 95 % 988,8 hPa 0,0 l/m 0 min 2 min 0 W/m 0,0 km/h (0 Bft) 95,74 %
03.10.2020 08:06 13,6 C 12,2 C 12,2 C 96 % 988,8 hPa 0,0 l/m 0 min 0 min 0 W/m 0,0 km/h (0 Bft) 93,62 %
03.10.2020 08:08 13,6 C 12,2 C 12,2 C 96 % 988,8 hPa 0,0 l/m 0 min 2 min 0 W/m 0,0 km/h (0 Bft) 97,87 %
03.10.2020 08:10 13,6 C 12,2 C 12,2 C 96 % 988,7 hPa 0,0 l/m 0 min 2 min 0 W/m 0,0 km/h (0 Bft) 95,65 %
03.10.2020 08:12 13,6 C 12,2 C 12,2 C 96 % 988,7 hPa 0,0 l/m 0 min 2 min 0 W/m 0,0 km/h (0 Bft) 97,87 %
03.10.2020 08:14 13,6 C 12,2 C 12,2 C 96 % 988,6 hPa 0,0 l/m 0 min 2 min 0 W/m 0,0 km/h (0 Bft) 95,74 %
03.10.2020 08:16 13,6 C 12,2 C 12,2 C 96 % 988,6 hPa 0,2 l/m 0 min 2 min 4 W/m 0,0 km/h (0 Bft) 95,74 %
03.10.2020 08:18 13,6 C 12,2 C 12,2 C 96 % 988,6 hPa 0,0 l/m 0 min 2 min 6 W/m 0,0 km/h (0 Bft) 95,74 %
03.10.2020 08:20 13,6 C 12,2 C 12,2 C 96 % 988,7 hPa 0,0 l/m 0 min 2 min 8 W/m 0,0 km/h (0 Bft) 97,87 %
03.10.2020 08:22 13,6 C 12,2 C 12,2 C 96 % 988,7 hPa 0,0 l/m 0 min 2 min 11 W/m 0,0 km/h (0 Bft) 95,65 %
03.10.2020 08:24 13,6 C 12,2 C 12,2 C 96 % 988,6 hPa 0,0 l/m 0 min 2 min 11 W/m 0,0 km/h (0 Bft) 97,87 %
03.10.2020 08:26 13,5 C 12,2 C 12,2 C 96 % 988,8 hPa 0,0 l/m 0 min 2 min 11 W/m 0,0 km/h (0 Bft) 97,87 %
03.10.2020 08:28 13,5 C 12,2 C 12,2 C 96 % 988,9 hPa 0,0 l/m 0 min 2 min 11 W/m 0,0 km/h (0 Bft) 97,87 %
03.10.2020 08:30 13,5 C 12,2 C 12,2 C 96 % 989,0 hPa 0,0 l/m 0 min 2 min 12 W/m 0,0 km/h (0 Bft) 97,87 %
03.10.2020 08:32 13,5 C 12,2 C 11,7 C 96 % 989,0 hPa 0,2 l/m 0 min 2 min 11 W/m 0,0 km/h (0 Bft) 97,83 %
03.10.2020 08:34 13,5 C 12,2 C 11,7 C 96 % 989,1 hPa 0,0 l/m 0 min 2 min 10 W/m 0,0 km/h (0 Bft) 97,87 %
03.10.2020 08:36 13,5 C 12,2 C 12,2 C 96 % 989,2 hPa 0,0 l/m 0 min 2 min 9 W/m 0,0 km/h (0 Bft) 95,74 %
03.10.2020 08:38 13,6 C 12,2 C 12,2 C 96 % 989,1 hPa 0,0 l/m 0 min 2 min 11 W/m 0,0 km/h (0 Bft) 97,87 %
03.10.2020 08:40 13,5 C 12,2 C 12,2 C 96 % 989,2 hPa 0,0 l/m 0 min 2 min 12 W/m 0,0 km/h (0 Bft) 100,00 %
03.10.2020 08:42 13,5 C 12,2 C 12,2 C 96 % 989,1 hPa 0,0 l/m 0 min 2 min 14 W/m 0,0 km/h (0 Bft) 100,00 %
03.10.2020 08:44 13,5 C 12,2 C 12,2 C 96 % 989,1 hPa 0,0 l/m 0 min 2 min 18 W/m 0,0 km/h (0 Bft) 100,00 %
03.10.2020 08:46 13,5 C 12,2 C 12,2 C 96 % 989,1 hPa 0,0 l/m 0 min 2 min 22 W/m 0,0 km/h (0 Bft) 100,00 %
03.10.2020 08:48 13,5 C 12,2 C 12,2 C 96 % 989,1 hPa 0,0 l/m 0 min 2 min 25 W/m 0,0 km/h (0 Bft) 100,00 %
03.10.2020 08:50 13,5 C 12,2 C 12,2 C 96 % 989,0 hPa 0,0 l/m 0 min 2 min 26 W/m 0,0 km/h (0 Bft) 100,00 %
03.10.2020 08:52 13,5 C 12,2 C 12,2 C 96 % 989,0 hPa 0,0 l/m 0 min 2 min 28 W/m 0,0 km/h (0 Bft) 100,00 %
03.10.2020 08:54 13,5 C 12,2 C 12,2 C 96 % 988,9 hPa 0,0 l/m 0 min 2 min 29 W/m 0,0 km/h (0 Bft) 100,00 %
03.10.2020 08:56 13,5 C 12,2 C 12,2 C 96 % 988,9 hPa 0,0 l/m 0 min 2 min 30 W/m 0,0 km/h (0 Bft) 95,65 %
03.10.2020 08:58 13,6 C 12,2 C 12,2 C 96 % 988,9 hPa 0,0 l/m 0 min 2 min 32 W/m 0,0 km/h (0 Bft) 100,00 %
03.10.2020 09:00 13,6 C 12,2 C 12,2 C 96 % 988,9 hPa 0,0 l/m 0 min 2 min 35 W/m 0,0 km/h (0 Bft) 100,00 %
03.10.2020 09:02 13,6 C 12,2 C 12,2 C 96 % 988,9 hPa 0,0 l/m 0 min 2 min 36 W/m 0,0 km/h (0 Bft) 100,00 %
03.10.2020 09:04 13,6 C 12,2 C 12,2 C 96 % 989,0 hPa 0,2 l/m 0 min 2 min 32 W/m 0,0 km/h (0 Bft) 100,00 %
03.10.2020 09:06 13,6 C 12,2 C 12,2 C 96 % 989,0 hPa 0,0 l/m 0 min 2 min 25 W/m 0,0 km/h (0 Bft) 97,87 %
03.10.2020 09:08 13,6 C 12,2 C 12,2 C 97 % 989,0 hPa 0,0 l/m 0 min 2 min 23 W/m 0,0 km/h (0 Bft) 100,00 %
03.10.2020 09:10 13,6 C 12,2 C 12,2 C 97 % 989,0 hPa 0,0 l/m 0 min 2 min 25 W/m 0,0 km/h (0 Bft) 100,00 %
03.10.2020 09:12 13,7 C 12,8 C 12,2 C 97 % 989,0 hPa 0,0 l/m 0 min 2 min 33 W/m 0,0 km/h (0 Bft) 100,00 %
03.10.2020 09:14 13,7 C 12,8 C 12,2 C 97 % 988,9 hPa 0,0 l/m 0 min 2 min 44 W/m 0,0 km/h (0 Bft) 100,00 %
03.10.2020 09:16 13,7 C 12,8 C 12,2 C 97 % 988,8 hPa 0,0 l/m 0 min 2 min 55 W/m 0,0 km/h (0 Bft) 100,00 %
03.10.2020 09:18 13,7 C 12,8 C 12,2 C 97 % 988,9 hPa 0,0 l/m 0 min 2 min 62 W/m 0,0 km/h (0 Bft) 100,00 %
03.10.2020 09:20 13,7 C 12,8 C 12,2 C 97 % 989,0 hPa 0,0 l/m 0 min 2 min 72 W/m 0,0 km/h (0 Bft) 100,00 %
03.10.2020 09:22 13,7 C 12,8 C 12,8 C 97 % 989,2 hPa 0,0 l/m 0 min 2 min 91 W/m 0,0 km/h (0 Bft) 97,87 %
03.10.2020 09:24 13,8 C 12,8 C 12,8 C 97 % 989,4 hPa 0,0 l/m 0 min 2 min 108 W/m 0,0 km/h (0 Bft) 100,00 %
03.10.2020 09:26 13,8 C 13,3 C 12,8 C 97 % 989,4 hPa 0,0 l/m 0 min 0 min 98 W/m 0,0 km/h (0 Bft) 97,87 %
03.10.2020 09:28 13,8 C 13,3 C 12,8 C 97 % 989,5 hPa 0,0 l/m 0 min 2 min 99 W/m 0,0 km/h (0 Bft) 95,74 %
03.10.2020 09:30 13,9 C 13,3 C 12,8 C 97 % 989,5 hPa 0,0 l/m 0 min 2 min 97 W/m 0,0 km/h (0 Bft) 97,87 %
03.10.2020 09:32 13,9 C 13,3 C 12,8 C 97 % 989,6 hPa 0,2 l/m 0 min 2 min 53 W/m 0,0 km/h (0 Bft) 97,83 %
03.10.2020 09:34 14,0 C 12,8 C 12,8 C 97 % 989,8 hPa 0,0 l/m 0 min 0 min 30 W/m 16,1 km/h (3 Bft) 97,87 %
03.10.2020 09:36 14,0 C 12,8 C 12,8 C 97 % 989,7 hPa 0,0 l/m 0 min 0 min 28 W/m 3,2 km/h (1 Bft) 97,87 %
03.10.2020 09:38 14,1 C 12,8 C 12,8 C 97 % 989,7 hPa 0,0 l/m 0 min 0 min 32 W/m 6,4 km/h (2 Bft) 93,62 %
03.10.2020 09:40 14,1 C 12,8 C 12,8 C 97 % 989,8 hPa 0,0 l/m 0 min 0 min 31 W/m 0,0 km/h (0 Bft) 95,74 %
03.10.2020 09:42 14,1 C 12,8 C 12,8 C 98 % 989,8 hPa 0,0 l/m 0 min 0 min 33 W/m 0,0 km/h (0 Bft) 97,87 %
03.10.2020 09:44 14,1 C 12,8 C 12,8 C 98 % 989,8 hPa 0,0 l/m 0 min 0 min 37 W/m 0,0 km/h (0 Bft) 97,83 %
03.10.2020 09:46 14,1 C 13,3 C 12,8 C 98 % 989,7 hPa 0,0 l/m 0 min 0 min 43 W/m 0,0 km/h (0 Bft) 95,74 %
03.10.2020 09:48 14,1 C 13,3 C 12,8 C 98 % 989,7 hPa 0,0 l/m 0 min 0 min 48 W/m 6,4 km/h (2 Bft) 97,87 %
03.10.2020 09:50 14,1 C 13,3 C 12,8 C 98 % 989,7 hPa 0,0 l/m 0 min 0 min 54 W/m 0,0 km/h (0 Bft) 97,87 %
03.10.2020 09:52 14,1 C 13,3 C 12,8 C 98 % 989,7 hPa 0,0 l/m 0 min 0 min 62 W/m 0,0 km/h (0 Bft) 97,87 %
03.10.2020 09:54 14,1 C 13,3 C 12,8 C 98 % 989,8 hPa 0,0 l/m 0 min 0 min 64 W/m 0,0 km/h (0 Bft) 97,87 %
03.10.2020 09:56 14,2 C 13,3 C 12,8 C 98 % 989,8 hPa 0,0 l/m 0 min 0 min 58 W/m 3,2 km/h (1 Bft) 93,48 %
03.10.2020 09:58 14,2 C 13,3 C 12,8 C 98 % 989,8 hPa 0,0 l/m 0 min 0 min 72 W/m 0,0 km/h (0 Bft) 97,87 %
03.10.2020 10:00 14,2 C 13,9 C 12,8 C 98 % 989,7 hPa 0,0 l/m 0 min 0 min 88 W/m 0,0 km/h (0 Bft) 97,87 %
03.10.2020 10:02 14,2 C 13,3 C 12,8 C 98 % 989,6 hPa 0,0 l/m 0 min 0 min 65 W/m 0,0 km/h (0 Bft) 95,74 %
03.10.2020 10:04 14,3 C 13,3 C 12,8 C 98 % 989,7 hPa 0,0 l/m 0 min 0 min 47 W/m 0,0 km/h (0 Bft) 95,74 %
03.10.2020 10:06 14,3 C 13,3 C 12,8 C 98 % 989,9 hPa 0,0 l/m 0 min 0 min 38 W/m 6,4 km/h (2 Bft) 97,83 %
03.10.2020 10:08 14,3 C 13,3 C 12,8 C 98 % 990,1 hPa 0,0 l/m 0 min 0 min 30 W/m 3,2 km/h (1 Bft) 97,87 %
03.10.2020 10:10 14,3 C 13,3 C 12,8 C 98 % 990,2 hPa 0,0 l/m 0 min 0 min 22 W/m 3,2 km/h (1 Bft) 97,87 %
03.10.2020 10:12 14,3 C 13,3 C 12,8 C 98 % 990,1 hPa 0,0 l/m 0 min 0 min 28 W/m 0,0 km/h (0 Bft) 97,87 %
03.10.2020 10:14 14,2 C 13,3 C 12,8 C 98 % 990,1 hPa 0,0 l/m 0 min 0 min 36 W/m 3,2 km/h (1 Bft) 97,87 %
03.10.2020 10:16 14,2 C 13,3 C 12,8 C 98 % 990,1 hPa 0,0 l/m 0 min 0 min 39 W/m 3,2 km/h (1 Bft) 100,00 %
03.10.2020 10:18 14,2 C 13,3 C 12,8 C 98 % 990,1 hPa 0,0 l/m 0 min 0 min 33 W/m 0,0 km/h (0 Bft) 100,00 %
03.10.2020 10:20 14,1 C 12,8 C 12,8 C 98 % 990,2 hPa 0,0 l/m 0 min 0 min 25 W/m 16,1 km/h (3 Bft) 100,00 %
03.10.2020 10:22 14,1 C 12,8 C 12,8 C 98 % 990,3 hPa 0,0 l/m 0 min 0 min 22 W/m 3,2 km/h (1 Bft) 100,00 %
03.10.2020 10:24 14,1 C 12,8 C 12,8 C 98 % 990,4 hPa 0,0 l/m 0 min 0 min 22 W/m 12,9 km/h (3 Bft) 97,87 %
03.10.2020 10:26 14,0 C 12,8 C 12,8 C 98 % 990,3 hPa 0,0 l/m 0 min 0 min 26 W/m 3,2 km/h (1 Bft) 97,87 %
03.10.2020 10:28 13,9 C 12,8 C 12,8 C 98 % 990,3 hPa 0,0 l/m 0 min 0 min 33 W/m 3,2 km/h (1 Bft) 100,00 %
03.10.2020 10:30 13,9 C 12,8 C 12,8 C 98 % 990,4 hPa 0,0 l/m 0 min 0 min 32 W/m 6,4 km/h (2 Bft) 97,83 %
03.10.2020 10:32 13,9 C 12,8 C 12,2 C 98 % 990,3 hPa 0,0 l/m 0 min 0 min 29 W/m 0,0 km/h (0 Bft) 97,87 %
03.10.2020 10:34 13,8 C 12,8 C 12,2 C 98 % 990,3 hPa 0,0 l/m 0 min 0 min 35 W/m 0,0 km/h (0 Bft) 97,87 %
03.10.2020 10:36 13,8 C 12,8 C 12,8 C 98 % 990,2 hPa 0,0 l/m 0 min 0 min 46 W/m 0,0 km/h (0 Bft) 97,87 %
03.10.2020 10:38 13,8 C 12,8 C 12,8 C 98 % 990,3 hPa 0,0 l/m 0 min 0 min 64 W/m 6,4 km/h (2 Bft) 100,00 %
03.10.2020 10:40 13,8 C 12,8 C 12,8 C 98 % 990,3 hPa 0,0 l/m 0 min 0 min 71 W/m 6,4 km/h (2 Bft) 100,00 %
03.10.2020 10:42 13,8 C 12,8 C 12,8 C 98 % 990,3 hPa 0,0 l/m 0 min 0 min 54 W/m 0,0 km/h (0 Bft) 95,65 %
03.10.2020 10:44 13,8 C 12,8 C 12,8 C 98 % 990,2 hPa 0,0 l/m 0 min 0 min 37 W/m 0,0 km/h (0 Bft) 95,74 %
03.10.2020 10:46 13,8 C 12,8 C 12,8 C 98 % 990,2 hPa 0,0 l/m 0 min 0 min 39 W/m 0,0 km/h (0 Bft) 95,74 %
03.10.2020 10:48 13,8 C 12,8 C 12,8 C 98 % 990,1 hPa 0,0 l/m 0 min 0 min 52 W/m 0,0 km/h (0 Bft) 93,62 %
03.10.2020 10:50 13,8 C 12,8 C 12,8 C 98 % 990,1 hPa 0,0 l/m 0 min 0 min 60 W/m 3,2 km/h (1 Bft) 95,74 %
03.10.2020 10:52 13,8 C 12,8 C 12,8 C 98 % 990,2 hPa 0,0 l/m 0 min 0 min 53 W/m 0,0 km/h (0 Bft) 97,87 %
03.10.2020 10:54 13,8 C 12,8 C 12,8 C 98 % 990,2 hPa 0,0 l/m 0 min 0 min 53 W/m 9,7 km/h (2 Bft) 95,65 %
03.10.2020 10:56 13,8 C 12,8 C 12,8 C 98 % 990,3 hPa 0,0 l/m 0 min 0 min 43 W/m 3,2 km/h (1 Bft) 95,74 %
03.10.2020 10:58 13,7 C 12,8 C 12,8 C 98 % 990,3 hPa 0,0 l/m 0 min 0 min 44 W/m 0,0 km/h (0 Bft) 95,74 %
03.10.2020 11:00 13,7 C 12,8 C 12,8 C 98 % 990,3 hPa 0,0 l/m 0 min 0 min 62 W/m 0,0 km/h (0 Bft) 95,74 %
03.10.2020 11:02 13,7 C 12,8 C 12,8 C 97 % 990,2 hPa 0,0 l/m 0 min 0 min 82 W/m 16,1 km/h (3 Bft) 93,62 %
03.10.2020 11:04 13,6 C 12,8 C 12,8 C 97 % 990,2 hPa 0,0 l/m 0 min 0 min 82 W/m 0,0 km/h (0 Bft) 95,74 %
03.10.2020 11:06 13,6 C 12,8 C 12,8 C 97 % 990,2 hPa 0,0 l/m 0 min 0 min 74 W/m 3,2 km/h (1 Bft) 91,30 %
03.10.2020 11:08 13,6 C 12,8 C 12,8 C 97 % 990,2 hPa 0,0 l/m 0 min 0 min 67 W/m 0,0 km/h (0 Bft) 93,62 %
03.10.2020 11:10 13,6 C 12,8 C 12,2 C 97 % 990,3 hPa 0,0 l/m 0 min 0 min 61 W/m 6,4 km/h (2 Bft) 95,74 %
03.10.2020 11:12 13,6 C 12,8 C 12,2 C 97 % 990,3 hPa 0,0 l/m 0 min 0 min 54 W/m 0,0 km/h (0 Bft) 95,74 %
03.10.2020 11:14 13,5 C 12,8 C 12,2 C 97 % 990,4 hPa 0,0 l/m 0 min 0 min 50 W/m 0,0 km/h (0 Bft) 95,74 %
03.10.2020 11:16 13,5 C 12,8 C 12,2 C 97 % 990,5 hPa 0,0 l/m 0 min 0 min 42 W/m 12,9 km/h (3 Bft) 95,65 %
03.10.2020 11:18 13,5 C 12,8 C 12,2 C 97 % 990,4 hPa 0,0 l/m 0 min 0 min 45 W/m 3,2 km/h (1 Bft) 95,74 %
03.10.2020 11:20 13,5 C 12,8 C 12,2 C 97 % 990,5 hPa 0,0 l/m 0 min 0 min 41 W/m 6,4 km/h (2 Bft) 95,74 %
03.10.2020 11:22 13,4 C 12,2 C 12,2 C 97 % 990,6 hPa 0,0 l/m 0 min 0 min 29 W/m 6,4 km/h (2 Bft) 95,74 %
03.10.2020 11:24 13,4 C 12,2 C 12,2 C 97 % 990,7 hPa 0,0 l/m 0 min 0 min 28 W/m 9,7 km/h (2 Bft) 95,74 %
03.10.2020 11:26 13,4 C 12,2 C 12,2 C 97 % 990,6 hPa 0,0 l/m 0 min 0 min 33 W/m 12,9 km/h (3 Bft) 95,74 %
03.10.2020 11:28 13,4 C 12,2 C 12,2 C 97 % 990,7 hPa 0,0 l/m 0 min 0 min 40 W/m 0,0 km/h (0 Bft) 95,65 %
03.10.2020 11:30 13,4 C 12,8 C 12,2 C 97 % 990,7 hPa 0,0 l/m 0 min 0 min 47 W/m 0,0 km/h (0 Bft) 93,62 %
03.10.2020 11:32 13,4 C 12,8 C 12,2 C 97 % 990,6 hPa 0,0 l/m 0 min 0 min 45 W/m 6,4 km/h (2 Bft) 96,23 %
03.10.2020 11:34 13,4 C 12,8 C 12,2 C 97 % 990,6 hPa 0,0 l/m 0 min 0 min 40 W/m 12,9 km/h (3 Bft) 97,87 %
03.10.2020 11:36 13,4 C 12,8 C 12,2 C 97 % 990,6 hPa 0,0 l/m 0 min 0 min 40 W/m 0,0 km/h (0 Bft) 95,74 %
03.10.2020 11:38 13,4 C 12,8 C 12,2 C 97 % 990,4 hPa 0,0 l/m 0 min 0 min 44 W/m 0,0 km/h (0 Bft) 97,87 %
03.10.2020 11:40 13,4 C 12,8 C 12,2 C 97 % 990,3 hPa 0,0 l/m 0 min 0 min 57 W/m 0,0 km/h (0 Bft) 97,87 %
03.10.2020 11:42 13,4 C 12,8 C 12,2 C 97 % 990,4 hPa 0,0 l/m 0 min 0 min 67 W/m 0,0 km/h (0 Bft) 97,83 %
03.10.2020 11:44 13,4 C 12,8 C 12,2 C 97 % 990,4 hPa 0,0 l/m 0 min 0 min 77 W/m 12,9 km/h (3 Bft) 100,00 %
03.10.2020 11:46 13,4 C 12,8 C 12,2 C 97 % 990,2 hPa 0,0 l/m 0 min 0 min 76 W/m 0,0 km/h (0 Bft) 100,00 %
03.10.2020 11:48 13,5 C 12,8 C 12,2 C 97 % 990,1 hPa 0,0 l/m 0 min 0 min 66 W/m 0,0 km/h (0 Bft) 100,00 %
03.10.2020 11:50 13,5 C 12,8 C 12,2 C 97 % 990,2 hPa 0,0 l/m 0 min 0 min 67 W/m 0,0 km/h (0 Bft) 97,87 %
03.10.2020 11:52 13,5 C 12,8 C 12,8 C 97 % 990,2 hPa 0,0 l/m 0 min 0 min 78 W/m 9,7 km/h (2 Bft) 97,87 %
03.10.2020 11:54 13,5 C 12,8 C 12,8 C 97 % 990,3 hPa 0,0 l/m 0 min 0 min 74 W/m 19,3 km/h (3 Bft) 100,00 %
03.10.2020 11:56 13,4 C 12,8 C 12,8 C 97 % 990,4 hPa 0,0 l/m 0 min 0 min 63 W/m 3,2 km/h (1 Bft) 100,00 %
03.10.2020 11:58 13,4 C 12,8 C 12,2 C 96 % 990,3 hPa 0,0 l/m 0 min 0 min 62 W/m 3,2 km/h (1 Bft) 100,00 %
03.10.2020 12:00 13,4 C 12,8 C 12,2 C 96 % 990,3 hPa 0,0 l/m 0 min 0 min 63 W/m 3,2 km/h (1 Bft) 100,00 %
03.10.2020 12:02 13,4 C 12,8 C 12,2 C 96 % 990,2 hPa 0,0 l/m 0 min 0 min 67 W/m 0,0 km/h (0 Bft) 100,00 %
03.10.2020 12:04 13,4 C 12,8 C 12,2 C 96 % 990,1 hPa 0,0 l/m 0 min 0 min 76 W/m 0,0 km/h (0 Bft) 100,00 %
03.10.2020 12:08 13,4 C 12,8 C 12,2 C 96 % 990,1 hPa 0,0 l/m 0 min 0 min 66 W/m 0,0 km/h (0 Bft) 100,00 %
03.10.2020 12:10 13,4 C 12,8 C 12,2 C 96 % 990,1 hPa 0,0 l/m 0 min 0 min 61 W/m 0,0 km/h (0 Bft) 100,00 %
03.10.2020 12:12 13,4 C 12,8 C 12,2 C 96 % 990,1 hPa 0,0 l/m 0 min 0 min 59 W/m 0,0 km/h (0 Bft) 95,74 %
03.10.2020 12:14 13,4 C 12,8 C 12,2 C 96 % 990,1 hPa 0,0 l/m 0 min 0 min 62 W/m 6,4 km/h (2 Bft) 97,87 %
03.10.2020 12:16 13,4 C 12,8 C 12,2 C 96 % 990,1 hPa 0,0 l/m 0 min 0 min 68 W/m 0,0 km/h (0 Bft) 97,83 %
03.10.2020 12:18 13,4 C 12,8 C 12,2 C 96 % 990,2 hPa 0,0 l/m 0 min 0 min 68 W/m 3,2 km/h (1 Bft) 97,87 %
03.10.2020 12:20 13,4 C 12,8 C 12,2 C 96 % 990,3 hPa 0,0 l/m 0 min 0 min 65 W/m 0,0 km/h (0 Bft) 93,62 %
03.10.2020 12:22 13,4 C 12,8 C 12,2 C 96 % 990,2 hPa 0,0 l/m 0 min 0 min 66 W/m 0,0 km/h (0 Bft) 97,87 %
03.10.2020 12:24 13,4 C 12,8 C 12,2 C 96 % 990,2 hPa 0,0 l/m 0 min 0 min 71 W/m 0,0 km/h (0 Bft) 97,87 %
03.10.2020 12:26 13,4 C 12,8 C 12,8 C 96 % 990,3 hPa 0,0 l/m 0 min 0 min 80 W/m 0,0 km/h (0 Bft) 97,87 %
03.10.2020 12:28 13,4 C 12,8 C 12,8 C 96 % 990,2 hPa 0,0 l/m 0 min 0 min 89 W/m 0,0 km/h (0 Bft) 95,65 %
03.10.2020 12:30 13,4 C 12,8 C 12,8 C 96 % 990,2 hPa 0,0 l/m 0 min 0 min 86 W/m 6,4 km/h (2 Bft) 93,62 %
03.10.2020 12:32 13,4 C 12,8 C 12,8 C 96 % 990,3 hPa 0,0 l/m 0 min 0 min 82 W/m 0,0 km/h (0 Bft) 97,87 %
03.10.2020 12:34 13,4 C 12,8 C 12,8 C 96 % 990,3 hPa 0,0 l/m 0 min 0 min 76 W/m 0,0 km/h (0 Bft) 97,87 %
03.10.2020 12:36 13,4 C 12,8 C 12,8 C 96 % 990,4 hPa 0,0 l/m 0 min 0 min 73 W/m 0,0 km/h (0 Bft) 97,87 %
03.10.2020 12:38 13,4 C 12,8 C 12,8 C 96 % 990,3 hPa 0,0 l/m 0 min 0 min 69 W/m 3,2 km/h (1 Bft) 95,74 %
03.10.2020 12:40 13,4 C 12,8 C 12,8 C 95 % 990,4 hPa 0,0 l/m 0 min 0 min 70 W/m 0,0 km/h (0 Bft) 95,65 %
03.10.2020 12:42 13,5 C 12,8 C 12,8 C 95 % 990,3 hPa 0,0 l/m 0 min 0 min 83 W/m 0,0 km/h (0 Bft) 97,87 %
03.10.2020 12:44 13,5 C 12,8 C 12,8 C 95 % 990,3 hPa 0,0 l/m 0 min 0 min 89 W/m 0,0 km/h (0 Bft) 97,87 %
03.10.2020 12:46 13,5 C 12,8 C 12,8 C 95 % 990,3 hPa 0,0 l/m 0 min 0 min 73 W/m 12,9 km/h (3 Bft) 95,74 %
03.10.2020 12:48 13,5 C 12,8 C 12,8 C 95 % 990,4 hPa 0,0 l/m 0 min 0 min 64 W/m 16,1 km/h (3 Bft) 97,87 %
03.10.2020 12:50 13,5 C 12,8 C 12,8 C 95 % 990,5 hPa 0,0 l/m 0 min 0 min 64 W/m 6,4 km/h (2 Bft) 97,87 %
03.10.2020 12:52 13,5 C 12,8 C 12,8 C 95 % 990,4 hPa 0,0 l/m 0 min 0 min 70 W/m 3,2 km/h (1 Bft) 97,83 %
03.10.2020 12:54 13,6 C 12,8 C 12,8 C 95 % 990,4 hPa 0,0 l/m 0 min 0 min 68 W/m 0,0 km/h (0 Bft) 97,87 %
03.10.2020 12:56 13,6 C 12,8 C 12,8 C 95 % 990,5 hPa 0,0 l/m 0 min 0 min 61 W/m 3,2 km/h (1 Bft) 97,87 %
03.10.2020 12:58 13,6 C 12,8 C 12,8 C 95 % 990,5 hPa 0,0 l/m 0 min 0 min 54 W/m 9,7 km/h (2 Bft) 97,87 %
03.10.2020 13:00 13,6 C 12,8 C 12,8 C 95 % 990,5 hPa 0,0 l/m 0 min 0 min 62 W/m 9,7 km/h (2 Bft) 100,00 %
03.10.2020 13:02 13,6 C 12,8 C 12,8 C 95 % 990,6 hPa 0,0 l/m 0 min 0 min 69 W/m 12,9 km/h (3 Bft) 100,00 %
03.10.2020 13:04 13,6 C 12,8 C 12,8 C 94 % 990,7 hPa 0,0 l/m 0 min 0 min 85 W/m 22,5 km/h (4 Bft) 95,65 %
03.10.2020 13:06 13,6 C 12,8 C 12,8 C 95 % 990,8 hPa 0,0 l/m 0 min 0 min 104 W/m 19,3 km/h (3 Bft) 100,00 %
03.10.2020 13:08 13,6 C 12,8 C 12,8 C 94 % 990,8 hPa 0,0 l/m 0 min 0 min 103 W/m 12,9 km/h (3 Bft) 100,00 %
03.10.2020 13:10 13,6 C 12,8 C 12,8 C 94 % 990,8 hPa 0,0 l/m 0 min 0 min 66 W/m 19,3 km/h (3 Bft) 100,00 %
03.10.2020 13:12 13,6 C 12,8 C 12,8 C 94 % 990,8 hPa 0,0 l/m 0 min 0 min 54 W/m 12,9 km/h (3 Bft) 100,00 %
03.10.2020 13:14 13,6 C 12,8 C 12,8 C 94 % 990,8 hPa 0,0 l/m 0 min 0 min 57 W/m 12,9 km/h (3 Bft) 95,74 %
03.10.2020 13:16 13,6 C 12,8 C 12,2 C 94 % 990,8 hPa 0,0 l/m 0 min 0 min 59 W/m 3,2 km/h (1 Bft) 100,00 %
03.10.2020 13:18 13,6 C 12,8 C 12,2 C 94 % 990,8 hPa 0,0 l/m 0 min 0 min 60 W/m 16,1 km/h (3 Bft) 97,87 %
03.10.2020 13:20 13,6 C 12,2 C 12,2 C 93 % 990,8 hPa 0,0 l/m 0 min 0 min 60 W/m 25,7 km/h (4 Bft) 97,87 %
03.10.2020 13:22 13,6 C 12,2 C 12,2 C 93 % 990,8 hPa 0,0 l/m 0 min 0 min 58 W/m 12,9 km/h (3 Bft) 95,74 %
03.10.2020 13:24 13,5 C 12,2 C 12,2 C 93 % 991,0 hPa 0,0 l/m 0 min 0 min 56 W/m 19,3 km/h (3 Bft) 100,00 %
03.10.2020 13:26 13,5 C 12,2 C 12,2 C 93 % 991,0 hPa 0,0 l/m 0 min 0 min 52 W/m 22,5 km/h (4 Bft) 95,65 %
03.10.2020 13:28 13,5 C 12,2 C 12,2 C 93 % 991,0 hPa 0,0 l/m 0 min 0 min 47 W/m 16,1 km/h (3 Bft) 97,37 %
03.10.2020 13:30 13,5 C 12,2 C 12,2 C 93 % 991,0 hPa 0,0 l/m 0 min 0 min 47 W/m 16,1 km/h (3 Bft) 61,70 %
03.10.2020 13:32 13,5 C 12,8 C 12,2 C 93 % 990,9 hPa 0,0 l/m 0 min 0 min 45 W/m 6,4 km/h (2 Bft) 91,49 %
03.10.2020 13:34 13,5 C 12,8 C 12,2 C 93 % 991,0 hPa 0,0 l/m 0 min 0 min 44 W/m 0,0 km/h (0 Bft) 100,00 %
03.10.2020 13:36 13,5 C 12,8 C 12,2 C 93 % 991,0 hPa 0,0 l/m 0 min 0 min 44 W/m 9,7 km/h (2 Bft) 100,00 %
03.10.2020 13:38 13,5 C 12,8 C 12,2 C 93 % 991,0 hPa 0,0 l/m 0 min 0 min 43 W/m 16,1 km/h (3 Bft) 97,87 %
03.10.2020 13:40 13,5 C 12,8 C 12,2 C 93 % 991,0 hPa 0,0 l/m 0 min 0 min 48 W/m 19,3 km/h (3 Bft) 97,83 %
03.10.2020 13:42 13,5 C 12,8 C 12,2 C 93 % 991,1 hPa 0,0 l/m 0 min 0 min 46 W/m 9,7 km/h (2 Bft) 95,74 %
03.10.2020 13:44 13,5 C 12,8 C 12,2 C 93 % 991,2 hPa 0,0 l/m 0 min 0 min 44 W/m 16,1 km/h (3 Bft) 97,87 %
03.10.2020 13:46 13,4 C 12,8 C 12,2 C 93 % 991,1 hPa 0,0 l/m 0 min 0 min 44 W/m 12,9 km/h (3 Bft) 97,87 %
03.10.2020 13:48 13,4 C 12,8 C 12,2 C 93 % 991,1 hPa 0,0 l/m 0 min 0 min 42 W/m 12,9 km/h (3 Bft) 95,74 %
03.10.2020 13:50 13,4 C 12,8 C 12,2 C 93 % 991,1 hPa 0,0 l/m 0 min 0 min 40 W/m 6,4 km/h (2 Bft) 97,87 %
03.10.2020 13:52 13,4 C 12,8 C 12,2 C 93 % 991,2 hPa 0,0 l/m 0 min 0 min 39 W/m 12,9 km/h (3 Bft) 97,83 %
03.10.2020 13:54 13,4 C 12,8 C 12,2 C 93 % 991,2 hPa 0,0 l/m 0 min 0 min 31 W/m 25,7 km/h (4 Bft) 95,74 %
03.10.2020 13:56 13,4 C 12,2 C 12,2 C 93 % 991,3 hPa 0,0 l/m 0 min 0 min 30 W/m 19,3 km/h (3 Bft) 97,87 %
03.10.2020 13:58 13,4 C 12,2 C 12,2 C 93 % 991,2 hPa 0,0 l/m 0 min 0 min 39 W/m 22,5 km/h (4 Bft) 97,87 %
03.10.2020 14:00 13,3 C 12,2 C 12,2 C 93 % 991,2 hPa 0,0 l/m 0 min 0 min 43 W/m 19,3 km/h (3 Bft) 97,87 %
03.10.2020 14:02 13,3 C 12,2 C 12,2 C 93 % 991,1 hPa 0,0 l/m 0 min 0 min 45 W/m 19,3 km/h (3 Bft) 97,87 %
03.10.2020 14:04 13,3 C 12,2 C 12,2 C 93 % 991,1 hPa 0,0 l/m 0 min 0 min 52 W/m 3,2 km/h (1 Bft) 97,87 %
03.10.2020 14:06 13,3 C 12,2 C 12,2 C 93 % 991,1 hPa 0,0 l/m 0 min 0 min 57 W/m 3,2 km/h (1 Bft) 95,74 %
03.10.2020 14:08 13,3 C 12,2 C 12,2 C 93 % 991,1 hPa 0,0 l/m 0 min 0 min 64 W/m 16,1 km/h (3 Bft) 97,87 %
03.10.2020 14:10 13,3 C 12,2 C 12,2 C 93 % 991,1 hPa 0,0 l/m 0 min 0 min 73 W/m 19,3 km/h (3 Bft) 95,74 %
03.10.2020 14:12 13,3 C 12,2 C 12,2 C 93 % 991,2 hPa 0,0 l/m 0 min 0 min 75 W/m 12,9 km/h (3 Bft) 95,65 %
03.10.2020 14:14 13,3 C 12,2 C 12,2 C 93 % 991,2 hPa 0,0 l/m 0 min 2 min 75 W/m 12,9 km/h (3 Bft) 95,74 %
03.10.2020 14:16 13,3 C 12,2 C 12,2 C 93 % 991,1 hPa 0,0 l/m 0 min 0 min 78 W/m 16,1 km/h (3 Bft) 94,34 %
03.10.2020 14:18 13,3 C 12,2 C 12,2 C 93 % 991,1 hPa 0,0 l/m 0 min 0 min 82 W/m 12,9 km/h (3 Bft) 95,74 %
03.10.2020 14:20 13,2 C 12,2 C 12,2 C 93 % 991,1 hPa 0,0 l/m 0 min 2 min 77 W/m 6,4 km/h (2 Bft) 95,74 %
03.10.2020 14:22 13,2 C 12,2 C 12,2 C 93 % 991,1 hPa 0,0 l/m 0 min 0 min 68 W/m 6,4 km/h (2 Bft) 95,74 %
03.10.2020 14:24 13,2 C 12,2 C 12,2 C 93 % 991,1 hPa 0,0 l/m 0 min 2 min 68 W/m 3,2 km/h (1 Bft) 97,83 %
03.10.2020 14:26 13,2 C 12,2 C 12,2 C 93 % 991,1 hPa 0,0 l/m 0 min 2 min 66 W/m 16,1 km/h (3 Bft) 97,87 %
03.10.2020 14:28 13,2 C 11,7 C 12,2 C 93 % 991,2 hPa 0,0 l/m 0 min 2 min 60 W/m 19,3 km/h (3 Bft) 97,87 %
03.10.2020 14:30 13,2 C 11,7 C 11,7 C 93 % 991,3 hPa 0,0 l/m 0 min 2 min 60 W/m 16,1 km/h (3 Bft) 95,74 %
03.10.2020 14:32 13,2 C 11,7 C 11,7 C 94 % 991,3 hPa 0,0 l/m 0 min 2 min 53 W/m 16,1 km/h (3 Bft) 97,87 %
03.10.2020 14:34 13,1 C 11,7 C 11,7 C 94 % 991,4 hPa 0,0 l/m 0 min 2 min 30 W/m 29,0 km/h (5 Bft) 95,74 %
03.10.2020 14:36 13,1 C 11,1 C 11,7 C 93 % 991,5 hPa 0,0 l/m 0 min 2 min 20 W/m 22,5 km/h (4 Bft) 97,87 %
03.10.2020 14:38 13,1 C 11,1 C 11,7 C 93 % 991,4 hPa 0,0 l/m 0 min 2 min 17 W/m 12,9 km/h (3 Bft) 95,65 %
03.10.2020 14:40 13,1 C 11,1 C 11,7 C 93 % 991,5 hPa 0,0 l/m 0 min 2 min 16 W/m 16,1 km/h (3 Bft) 97,87 %
03.10.2020 14:42 13,1 C 11,1 C 11,7 C 93 % 991,6 hPa 0,0 l/m 0 min 2 min 18 W/m 16,1 km/h (3 Bft) 97,87 %
03.10.2020 14:44 13,0 C 11,1 C 11,7 C 93 % 991,7 hPa 0,0 l/m 0 min 2 min 24 W/m 12,9 km/h (3 Bft) 97,87 %
03.10.2020 14:46 13,0 C 11,1 C 11,1 C 93 % 991,7 hPa 0,0 l/m 0 min 2 min 31 W/m 12,9 km/h (3 Bft) 97,87 %
03.10.2020 14:48 13,0 C 11,1 C 11,1 C 93 % 991,6 hPa 0,0 l/m 0 min 2 min 35 W/m 12,9 km/h (3 Bft) 97,83 %
03.10.2020 14:50 12,9 C 11,1 C 11,1 C 93 % 991,6 hPa 0,2 l/m 0 min 2 min 35 W/m 16,1 km/h (3 Bft) 97,87 %
03.10.2020 14:52 12,9 C 11,1 C 11,1 C 94 % 991,6 hPa 0,2 l/m 0 min 2 min 33 W/m 19,3 km/h (3 Bft) 97,87 %
03.10.2020 14:54 12,9 C 10,6 C 10,6 C 94 % 991,4 hPa 0,0 l/m 0 min 2 min 23 W/m 22,5 km/h (4 Bft) 97,87 %
03.10.2020 14:56 12,8 C 10,6 C 10,6 C 94 % 991,4 hPa 0,0 l/m 0 min 2 min 18 W/m 6,4 km/h (2 Bft) 97,87 %
03.10.2020 14:58 12,8 C 10,6 C 10,6 C 94 % 991,3 hPa 0,0 l/m 0 min 2 min 19 W/m 12,9 km/h (3 Bft) 97,87 %
03.10.2020 15:00 12,8 C 10,6 C 10,6 C 94 % 991,3 hPa 0,2 l/m 0 min 2 min 21 W/m 9,7 km/h (2 Bft) 97,83 %
03.10.2020 15:02 12,8 C 10,6 C 10,6 C 94 % 991,3 hPa 0,0 l/m 0 min 2 min 18 W/m 3,2 km/h (1 Bft) 91,67 %
03.10.2020 15:04 12,7 C 10,6 C 10,6 C 94 % 991,5 hPa 0,0 l/m 0 min 2 min 16 W/m 12,9 km/h (3 Bft) 91,49 %
03.10.2020 15:06 12,7 C 10,6 C 10,6 C 94 % 991,7 hPa 0,2 l/m 0 min 2 min 13 W/m 16,1 km/h (3 Bft) 93,62 %
03.10.2020 15:08 12,7 C 10,6 C 10,6 C 94 % 991,7 hPa 0,0 l/m 0 min 2 min 11 W/m 12,9 km/h (3 Bft) 95,74 %
03.10.2020 15:10 12,6 C 10,6 C 10,6 C 94 % 991,8 hPa 0,2 l/m 0 min 2 min 11 W/m 16,1 km/h (3 Bft) 95,65 %
03.10.2020 15:12 12,6 C 10,6 C 10,6 C 94 % 991,8 hPa 0,2 l/m 0 min 2 min 11 W/m 12,9 km/h (3 Bft) 95,74 %
03.10.2020 15:14 12,6 C 10,6 C 10,6 C 94 % 991,8 hPa 0,0 l/m 0 min 2 min 15 W/m 6,4 km/h (2 Bft) 97,87 %
03.10.2020 15:16 12,6 C 10,6 C 10,6 C 94 % 991,8 hPa 0,2 l/m 0 min 2 min 13 W/m 9,7 km/h (2 Bft) 97,87 %
03.10.2020 15:18 12,6 C 10,6 C 10,6 C 94 % 991,8 hPa 0,2 l/m 0 min 2 min 12 W/m 0,0 km/h (0 Bft) 95,74 %
03.10.2020 15:20 12,6 C 10,6 C 10,6 C 95 % 991,8 hPa 0,2 l/m 0 min 2 min 12 W/m 6,4 km/h (2 Bft) 95,74 %
03.10.2020 15:22 12,5 C 10,6 C 10,6 C 95 % 991,8 hPa 0,2 l/m 0 min 2 min 11 W/m 6,4 km/h (2 Bft) 95,74 %
03.10.2020 15:24 12,5 C 10,6 C 10,6 C 95 % 991,8 hPa 0,0 l/m 0 min 2 min 10 W/m 19,3 km/h (3 Bft) 97,87 %
03.10.2020 15:26 12,5 C 10,6 C 10,6 C 95 % 991,8 hPa 0,2 l/m 0 min 2 min 12 W/m 3,2 km/h (1 Bft) 95,74 %
03.10.2020 15:28 12,4 C 10,6 C 10,6 C 95 % 991,9 hPa 0,0 l/m 0 min 2 min 12 W/m 12,9 km/h (3 Bft) 97,87 %
03.10.2020 15:30 12,4 C 10,6 C 10,6 C 95 % 991,9 hPa 0,2 l/m 0 min 2 min 11 W/m 9,7 km/h (2 Bft) 97,87 %
03.10.2020 15:32 12,4 C 10,6 C 10,6 C 95 % 991,9 hPa 0,2 l/m 0 min 2 min 12 W/m 12,9 km/h (3 Bft) 93,75 %
03.10.2020 15:34 12,4 C 10,6 C 10,6 C 95 % 991,9 hPa 0,2 l/m 0 min 2 min 13 W/m 6,4 km/h (2 Bft) 97,83 %
03.10.2020 15:36 12,3 C 10,6 C 10,6 C 95 % 991,9 hPa 0,2 l/m 0 min 2 min 14 W/m 12,9 km/h (3 Bft) 95,74 %
03.10.2020 15:38 12,3 C 10,6 C 10,6 C 95 % 991,9 hPa 0,0 l/m 0 min 2 min 17 W/m 16,1 km/h (3 Bft) 97,87 %
03.10.2020 15:40 12,3 C 10,6 C 10,6 C 95 % 991,9 hPa 0,2 l/m 0 min 2 min 20 W/m 12,9 km/h (3 Bft) 95,74 %
03.10.2020 15:42 12,2 C 10,6 C 10,6 C 95 % 992,0 hPa 0,0 l/m 0 min 2 min 25 W/m 12,9 km/h (3 Bft) 97,14 %
03.10.2020 15:44 12,2 C 10,6 C 10,6 C 95 % 992,0 hPa 0,2 l/m 0 min 2 min 30 W/m 16,1 km/h (3 Bft) 96,61 %
03.10.2020 15:46 12,1 C 10,6 C 10,6 C 95 % 992,1 hPa 0,0 l/m 0 min 2 min 32 W/m 16,1 km/h (3 Bft) 95,65 %
03.10.2020 15:48 12,1 C 10,6 C 10,6 C 95 % 992,0 hPa 0,0 l/m 0 min 2 min 40 W/m 12,9 km/h (3 Bft) 95,74 %
03.10.2020 15:50 12,1 C 10,6 C 10,6 C 96 % 992,0 hPa 0,0 l/m 0 min 2 min 45 W/m 6,4 km/h (2 Bft) 95,74 %
03.10.2020 15:52 12,1 C 10,6 C 10,6 C 96 % 992,0 hPa 0,2 l/m 0 min 2 min 42 W/m 9,7 km/h (2 Bft) 100,00 %
03.10.2020 15:54 12,1 C 10,6 C 10,6 C 96 % 992,0 hPa 0,0 l/m 0 min 2 min 43 W/m 0,0 km/h (0 Bft) 100,00 %
03.10.2020 15:56 12,1 C 10,6 C 10,6 C 96 % 992,0 hPa 0,0 l/m 0 min 2 min 47 W/m 0,0 km/h (0 Bft) 95,74 %
03.10.2020 15:58 12,0 C 10,6 C 10,6 C 96 % 992,0 hPa 0,0 l/m 0 min 2 min 46 W/m 0,0 km/h (0 Bft) 100,00 %
03.10.2020 16:00 12,0 C 10,6 C 10,6 C 96 % 992,0 hPa 0,0 l/m 0 min 0 min 43 W/m 3,2 km/h (1 Bft) 100,00 %
03.10.2020 16:02 12,0 C 10,6 C 10,6 C 96 % 992,1 hPa 0,0 l/m 0 min 0 min 40 W/m 3,2 km/h (1 Bft) 100,00 %
03.10.2020 16:04 12,0 C 10,6 C 10,6 C 96 % 992,1 hPa 0,0 l/m 0 min 0 min 37 W/m 3,2 km/h (1 Bft) 100,00 %
03.10.2020 16:06 12,0 C 10,6 C 10,6 C 96 % 992,1 hPa 0,0 l/m 0 min 0 min 33 W/m 6,4 km/h (2 Bft) 97,87 %
03.10.2020 16:08 12,0 C 10,6 C 10,6 C 96 % 992,2 hPa 0,0 l/m 0 min 0 min 32 W/m 3,2 km/h (1 Bft) 100,00 %
03.10.2020 16:10 12,0 C 10,6 C 10,6 C 96 % 992,2 hPa 0,0 l/m 0 min 2 min 30 W/m 6,4 km/h (2 Bft) 100,00 %
03.10.2020 16:12 11,9 C 10,6 C 10,6 C 96 % 992,3 hPa 0,0 l/m 0 min 2 min 29 W/m 0,0 km/h (0 Bft) 100,00 %
03.10.2020 16:14 11,9 C 10,6 C 10,6 C 96 % 992,2 hPa 0,0 l/m 0 min 2 min 30 W/m 3,2 km/h (1 Bft) 100,00 %
03.10.2020 16:16 11,9 C 10,6 C 10,6 C 96 % 992,2 hPa 0,0 l/m 0 min 2 min 33 W/m 0,0 km/h (0 Bft) 97,87 %
03.10.2020 16:18 11,9 C 10,6 C 10,6 C 96 % 992,2 hPa 0,0 l/m 0 min 2 min 31 W/m 3,2 km/h (1 Bft) 100,00 %
03.10.2020 16:20 11,9 C 10,6 C 10,6 C 96 % 992,2 hPa 0,0 l/m 0 min 2 min 27 W/m 3,2 km/h (1 Bft) 100,00 %
03.10.2020 16:22 11,9 C 10,6 C 10,6 C 96 % 992,2 hPa 0,0 l/m 0 min 2 min 25 W/m 0,0 km/h (0 Bft) 97,87 %
03.10.2020 16:24 11,9 C 10,6 C 10,6 C 96 % 992,1 hPa 0,2 l/m 0 min 2 min 26 W/m 6,4 km/h (2 Bft) 100,00 %
03.10.2020 16:26 11,9 C 10,6 C 10,6 C 96 % 991,9 hPa 0,0 l/m 0 min 0 min 34 W/m 0,0 km/h (0 Bft) 97,87 %
03.10.2020 16:28 11,9 C 10,6 C 10,6 C 96 % 991,7 hPa 0,0 l/m 0 min 2 min 44 W/m 0,0 km/h (0 Bft) 97,87 %
03.10.2020 16:30 11,9 C 10,6 C 10,6 C 97 % 991,8 hPa 0,0 l/m 0 min 2 min 43 W/m 0,0 km/h (0 Bft) 97,87 %
03.10.2020 16:32 11,9 C 10,6 C 10,6 C 97 % 991,8 hPa 0,0 l/m 0 min 2 min 41 W/m 0,0 km/h (0 Bft) 95,83 %
03.10.2020 16:34 11,9 C 10,6 C 10,6 C 97 % 991,8 hPa 0,0 l/m 0 min 2 min 47 W/m 0,0 km/h (0 Bft) 93,62 %
03.10.2020 16:36 11,9 C 11,1 C 10,6 C 97 % 991,8 hPa 0,0 l/m 0 min 2 min 46 W/m 0,0 km/h (0 Bft) 97,87 %
03.10.2020 16:38 11,9 C 11,1 C 10,6 C 97 % 991,9 hPa 0,0 l/m 0 min 2 min 39 W/m 0,0 km/h (0 Bft) 97,87 %
03.10.2020 16:40 11,9 C 11,1 C 10,6 C 97 % 992,0 hPa 0,0 l/m 0 min 2 min 39 W/m 0,0 km/h (0 Bft) 97,87 %
03.10.2020 16:42 11,9 C 10,6 C 10,6 C 97 % 992,1 hPa 0,0 l/m 0 min 2 min 43 W/m 0,0 km/h (0 Bft) 97,83 %
03.10.2020 16:44 11,9 C 10,6 C 10,6 C 97 % 992,0 hPa 0,0 l/m 0 min 2 min 48 W/m 3,2 km/h (1 Bft) 97,87 %
03.10.2020 16:46 11,9 C 11,1 C 10,6 C 97 % 991,9 hPa 0,0 l/m 0 min 2 min 55 W/m 0,0 km/h (0 Bft) 95,74 %
03.10.2020 16:48 11,9 C 11,1 C 11,1 C 97 % 991,9 hPa 0,0 l/m 0 min 2 min 63 W/m 0,0 km/h (0 Bft) 97,87 %
03.10.2020 16:50 11,9 C 11,1 C 11,1 C 97 % 991,9 hPa 0,0 l/m 0 min 2 min 61 W/m 0,0 km/h (0 Bft) 97,87 %
03.10.2020 16:52 11,9 C 11,1 C 10,6 C 97 % 991,8 hPa 0,0 l/m 0 min 0 min 45 W/m 3,2 km/h (1 Bft) 97,87 %
03.10.2020 16:54 12,0 C 11,1 C 10,6 C 97 % 991,8 hPa 0,2 l/m 0 min 2 min 55 W/m 0,0 km/h (0 Bft) 97,83 %
03.10.2020 16:56 12,0 C 11,1 C 10,6 C 97 % 991,8 hPa 0,0 l/m 0 min 2 min 71 W/m 0,0 km/h (0 Bft) 97,87 %
03.10.2020 16:58 12,0 C 11,1 C 11,1 C 97 % 991,7 hPa 0,0 l/m 0 min 2 min 71 W/m 0,0 km/h (0 Bft) 95,74 %
03.10.2020 17:00 12,0 C 11,1 C 11,1 C 97 % 991,6 hPa 0,0 l/m 0 min 2 min 65 W/m 3,2 km/h (1 Bft) 97,87 %
03.10.2020 17:02 12,0 C 11,1 C 10,6 C 97 % 991,5 hPa 0,0 l/m 0 min 2 min 59 W/m 0,0 km/h (0 Bft) 97,87 %
03.10.2020 17:04 12,0 C 10,6 C 10,6 C 97 % 991,5 hPa 0,0 l/m 0 min 2 min 53 W/m 6,4 km/h (2 Bft) 95,74 %
03.10.2020 17:06 12,0 C 10,6 C 10,6 C 97 % 991,5 hPa 0,0 l/m 0 min 2 min 45 W/m 0,0 km/h (0 Bft) 97,83 %
03.10.2020 17:08 12,0 C 10,6 C 10,6 C 97 % 991,6 hPa 0,0 l/m 0 min 2 min 41 W/m 0,0 km/h (0 Bft) 97,87 %
03.10.2020 17:10 12,0 C 10,6 C 10,6 C 97 % 991,6 hPa 0,0 l/m 0 min 2 min 39 W/m 3,2 km/h (1 Bft) 97,87 %
03.10.2020 17:12 12,0 C 10,6 C 10,6 C 97 % 991,5 hPa 0,0 l/m 0 min 2 min 40 W/m 6,4 km/h (2 Bft) 97,87 %
03.10.2020 17:14 12,1 C 10,6 C 10,6 C 97 % 991,5 hPa 0,0 l/m 0 min 2 min 41 W/m 6,4 km/h (2 Bft) 97,87 %
03.10.2020 17:16 12,1 C 10,6 C 10,6 C 97 % 991,4 hPa 0,0 l/m 0 min 0 min 41 W/m 0,0 km/h (0 Bft) 100,00 %
03.10.2020 17:18 12,0 C 10,6 C 10,6 C 97 % 991,3 hPa 0,0 l/m 0 min 0 min 40 W/m 0,0 km/h (0 Bft) 100,00 %
03.10.2020 17:20 12,0 C 10,6 C 10,6 C 97 % 991,2 hPa 0,0 l/m 0 min 2 min 40 W/m 0,0 km/h (0 Bft) 100,00 %
03.10.2020 17:22 12,0 C 10,6 C 10,6 C 97 % 991,3 hPa 0,0 l/m 0 min 0 min 41 W/m 0,0 km/h (0 Bft) 97,87 %
03.10.2020 17:24 12,0 C 10,6 C 10,6 C 97 % 991,4 hPa 0,0 l/m 0 min 0 min 49 W/m 3,2 km/h (1 Bft) 100,00 %
03.10.2020 17:26 12,0 C 10,6 C 10,6 C 97 % 991,5 hPa 0,0 l/m 0 min 0 min 54 W/m 3,2 km/h (1 Bft) 100,00 %
03.10.2020 17:28 12,0 C 11,1 C 10,6 C 97 % 991,6 hPa 0,0 l/m 0 min 0 min 50 W/m 6,4 km/h (2 Bft) 100,00 %
03.10.2020 17:30 12,0 C 11,1 C 10,6 C 98 % 991,6 hPa 0,0 l/m 0 min 0 min 39 W/m 3,2 km/h (1 Bft) 100,00 %
03.10.2020 17:32 11,9 C 11,1 C 10,6 C 98 % 991,7 hPa 0,0 l/m 0 min 0 min 34 W/m 3,2 km/h (1 Bft) 100,00 %
03.10.2020 17:34 12,0 C 11,1 C 10,6 C 98 % 991,7 hPa 0,0 l/m 0 min 0 min 31 W/m 3,2 km/h (1 Bft) 100,00 %
03.10.2020 17:36 12,0 C 11,1 C 10,6 C 98 % 991,8 hPa 0,0 l/m 0 min 0 min 25 W/m 6,4 km/h (2 Bft) 100,00 %
03.10.2020 17:38 11,9 C 10,6 C 10,6 C 98 % 991,7 hPa 0,0 l/m 0 min 0 min 21 W/m 6,4 km/h (2 Bft) 100,00 %
03.10.2020 17:40 12,0 C 10,6 C 10,6 C 98 % 991,6 hPa 0,0 l/m 0 min 0 min 29 W/m 12,9 km/h (3 Bft) 100,00 %
03.10.2020 17:42 12,0 C 11,1 C 10,6 C 98 % 991,4 hPa 0,0 l/m 0 min 0 min 47 W/m 3,2 km/h (1 Bft) 100,00 %
03.10.2020 17:44 11,9 C 11,1 C 10,6 C 98 % 991,3 hPa 0,0 l/m 0 min 0 min 56 W/m 6,4 km/h (2 Bft) 97,87 %
03.10.2020 17:46 11,9 C 11,1 C 10,6 C 98 % 991,2 hPa 0,0 l/m 0 min 0 min 76 W/m 6,4 km/h (2 Bft) 100,00 %
03.10.2020 17:48 11,9 C 11,1 C 11,1 C 98 % 991,2 hPa 0,0 l/m 0 min 0 min 81 W/m 3,2 km/h (1 Bft) 100,00 %
03.10.2020 17:50 11,9 C 11,1 C 11,1 C 98 % 991,2 hPa 0,0 l/m 0 min 0 min 56 W/m 3,2 km/h (1 Bft) 97,87 %
03.10.2020 17:52 12,0 C 11,1 C 11,1 C 98 % 991,4 hPa 0,0 l/m 0 min 0 min 41 W/m 9,7 km/h (2 Bft) 97,83 %
03.10.2020 17:54 12,0 C 11,1 C 10,6 C 98 % 991,5 hPa 0,0 l/m 0 min 0 min 38 W/m 12,9 km/h (3 Bft) 97,87 %
03.10.2020 17:56 12,0 C 11,1 C 10,6 C 98 % 991,4 hPa 0,0 l/m 0 min 0 min 41 W/m 6,4 km/h (2 Bft) 97,87 %
03.10.2020 17:58 12,0 C 11,1 C 10,6 C 98 % 991,4 hPa 0,0 l/m 0 min 0 min 50 W/m 3,2 km/h (1 Bft) 95,74 %
03.10.2020 18:00 12,0 C 11,1 C 10,6 C 98 % 991,5 hPa 0,0 l/m 0 min 0 min 45 W/m 9,7 km/h (2 Bft) 97,87 %
03.10.2020 18:02 12,0 C 11,1 C 10,6 C 98 % 991,5 hPa 0,0 l/m 0 min 0 min 36 W/m 9,7 km/h (2 Bft) 93,62 %
03.10.2020 18:04 11,9 C 11,1 C 10,6 C 98 % 991,5 hPa 0,0 l/m 0 min 0 min 39 W/m 12,9 km/h (3 Bft) 93,48 %
03.10.2020 18:07 11,9 C 11,1 C 10,6 C 98 % 991,4 hPa 0,0 l/m 0 min 0 min 49 W/m 12,9 km/h (3 Bft) 94,92 %
03.10.2020 18:08 11,9 C 11,1 C 10,6 C 98 % 991,4 hPa 0,0 l/m 0 min 0 min 61 W/m 0,0 km/h (0 Bft) 94,29 %
03.10.2020 18:10 11,9 C 11,1 C 10,6 C 98 % 991,4 hPa 0,0 l/m 0 min 0 min 65 W/m 16,1 km/h (3 Bft) 95,74 %
03.10.2020 18:12 11,9 C 11,1 C 10,6 C 98 % 991,4 hPa 0,0 l/m 0 min 0 min 58 W/m 3,2 km/h (1 Bft) 93,62 %
03.10.2020 18:14 11,9 C 11,1 C 10,6 C 98 % 991,3 hPa 0,0 l/m 0 min 0 min 51 W/m 6,4 km/h (2 Bft) 95,74 %
03.10.2020 18:16 11,9 C 11,1 C 10,6 C 98 % 991,3 hPa 0,0 l/m 0 min 0 min 48 W/m 6,4 km/h (2 Bft) 95,65 %
03.10.2020 18:18 11,9 C 11,1 C 10,6 C 98 % 991,2 hPa 0,0 l/m 0 min 0 min 44 W/m 3,2 km/h (1 Bft) 95,74 %
03.10.2020 18:20 11,9 C 11,1 C 10,6 C 98 % 991,3 hPa 0,0 l/m 0 min 0 min 41 W/m 12,9 km/h (3 Bft) 93,62 %
03.10.2020 18:22 11,9 C 11,1 C 10,6 C 98 % 991,4 hPa 0,0 l/m 0 min 0 min 41 W/m 0,0 km/h (0 Bft) 95,74 %
03.10.2020 18:24 11,9 C 11,1 C 10,6 C 98 % 991,5 hPa 0,0 l/m 0 min 0 min 46 W/m 12,9 km/h (3 Bft) 95,74 %
03.10.2020 18:26 11,8 C 11,1 C 10,6 C 98 % 991,5 hPa 0,0 l/m 2 min 0 min 57 W/m 6,4 km/h (2 Bft) 93,48 %
03.10.2020 18:28 11,8 C 11,1 C 10,6 C 98 % 991,5 hPa 0,0 l/m 2 min 0 min 71 W/m 12,9 km/h (3 Bft) 95,74 %
03.10.2020 18:30 11,8 C 11,1 C 10,6 C 98 % 991,5 hPa 0,0 l/m 2 min 0 min 71 W/m 3,2 km/h (1 Bft) 93,62 %
03.10.2020 18:32 11,8 C 11,1 C 10,6 C 98 % 991,5 hPa 0,0 l/m 2 min 0 min 58 W/m 0,0 km/h (0 Bft) 95,74 %
03.10.2020 18:34 11,9 C 11,1 C 10,6 C 98 % 991,5 hPa 0,0 l/m 2 min 0 min 51 W/m 3,2 km/h (1 Bft) 95,74 %
03.10.2020 18:36 11,9 C 11,1 C 10,6 C 98 % 991,6 hPa 0,0 l/m 2 min 0 min 50 W/m 12,9 km/h (3 Bft) 95,74 %
03.10.2020 18:38 11,9 C 11,1 C 10,6 C 98 % 991,6 hPa 0,0 l/m 2 min 0 min 52 W/m 16,1 km/h (3 Bft) 97,83 %
03.10.2020 18:40 11,9 C 11,1 C 10,6 C 98 % 991,4 hPa 0,0 l/m 2 min 0 min 51 W/m 12,9 km/h (3 Bft) 97,87 %
03.10.2020 18:42 11,9 C 11,1 C 10,6 C 98 % 991,4 hPa 0,0 l/m 2 min 0 min 47 W/m 9,7 km/h (2 Bft) 97,87 %
03.10.2020 18:44 11,8 C 11,1 C 10,6 C 98 % 991,4 hPa 0,0 l/m 2 min 0 min 41 W/m 19,3 km/h (3 Bft) 97,87 %
03.10.2020 18:46 11,8 C 11,1 C 10,6 C 98 % 991,5 hPa 0,0 l/m 2 min 0 min 32 W/m 16,1 km/h (3 Bft) 95,74 %
03.10.2020 18:48 11,8 C 11,1 C 10,6 C 98 % 991,5 hPa 0,0 l/m 2 min 0 min 28 W/m 16,1 km/h (3 Bft) 97,87 %
03.10.2020 18:50 11,8 C 11,1 C 10,6 C 98 % 991,5 hPa 0,0 l/m 2 min 0 min 26 W/m 16,1 km/h (3 Bft) 97,83 %
03.10.2020 18:52 11,8 C 11,1 C 10,6 C 98 % 991,5 hPa 0,0 l/m 2 min 0 min 23 W/m 16,1 km/h (3 Bft) 95,74 %
03.10.2020 18:54 11,8 C 11,1 C 10,6 C 98 % 991,5 hPa 0,0 l/m 0 min 0 min 18 W/m 16,1 km/h (3 Bft) 95,74 %
03.10.2020 18:56 11,8 C 10,6 C 10,6 C 98 % 991,5 hPa 0,0 l/m 0 min 0 min 14 W/m 25,7 km/h (4 Bft) 97,87 %
03.10.2020 18:58 11,8 C 10,6 C 10,6 C 98 % 991,5 hPa 0,0 l/m 0 min 0 min 12 W/m 6,4 km/h (2 Bft) 97,87 %
03.10.2020 19:00 11,8 C 10,6 C 10,6 C 98 % 991,4 hPa 0,0 l/m 0 min 0 min 9 W/m 12,9 km/h (3 Bft) 97,87 %
03.10.2020 19:02 11,8 C 10,6 C 10,6 C 98 % 991,4 hPa 0,0 l/m 0 min 0 min 6 W/m 12,9 km/h (3 Bft) 95,65 %
03.10.2020 19:04 11,8 C 10,6 C 10,0 C 98 % 991,5 hPa 0,0 l/m 0 min 0 min 4 W/m 16,1 km/h (3 Bft) 97,87 %
03.10.2020 19:06 11,8 C 10,6 C 10,0 C 98 % 991,4 hPa 0,0 l/m 0 min 0 min 0 W/m 12,9 km/h (3 Bft) 97,87 %
03.10.2020 19:08 11,8 C 10,6 C 10,0 C 98 % 991,4 hPa 0,0 l/m 0 min 0 min 0 W/m 6,4 km/h (2 Bft) 100,00 %
03.10.2020 19:10 11,7 C 10,6 C 10,0 C 98 % 991,3 hPa 0,0 l/m 0 min 0 min 0 W/m 0,0 km/h (0 Bft) 93,62 %
03.10.2020 19:12 11,7 C 10,6 C 10,0 C 98 % 991,3 hPa 0,0 l/m 0 min 0 min 0 W/m 16,1 km/h (3 Bft) 97,87 %
03.10.2020 19:14 11,7 C 10,6 C 10,0 C 98 % 991,3 hPa 0,0 l/m 0 min 0 min 0 W/m 16,1 km/h (3 Bft) 97,83 %
03.10.2020 19:16 11,7 C 10,6 C 10,0 C 98 % 991,3 hPa 0,0 l/m 0 min 0 min 0 W/m 19,3 km/h (3 Bft) 95,74 %
03.10.2020 19:18 11,7 C 10,6 C 10,0 C 98 % 991,2 hPa 0,0 l/m 0 min 0 min 0 W/m 6,4 km/h (2 Bft) 97,87 %
03.10.2020 19:20 11,7 C 10,6 C 10,0 C 98 % 991,2 hPa 0,0 l/m 0 min 0 min 0 W/m 16,1 km/h (3 Bft) 95,74 %
03.10.2020 19:22 11,7 C 10,6 C 10,0 C 98 % 991,1 hPa 0,0 l/m 0 min 0 min 0 W/m 9,7 km/h (2 Bft) 97,87 %
03.10.2020 19:24 11,7 C 10,6 C 10,0 C 98 % 991,1 hPa 0,0 l/m 0 min 0 min 0 W/m 16,1 km/h (3 Bft) 97,87 %
03.10.2020 19:26 11,6 C 10,6 C 10,0 C 98 % 991,1 hPa 0,0 l/m 0 min 0 min 0 W/m 9,7 km/h (2 Bft) 97,83 %
03.10.2020 19:28 11,6 C 10,6 C 10,0 C 98 % 991,1 hPa 0,0 l/m 0 min 0 min 0 W/m 22,5 km/h (4 Bft) 97,87 %
03.10.2020 19:30 11,6 C 10,0 C 10,0 C 98 % 991,0 hPa 0,0 l/m 0 min 0 min 0 W/m 0,0 km/h (0 Bft) 97,87 %
03.10.2020 19:32 11,6 C 10,0 C 10,0 C 98 % 991,0 hPa 0,0 l/m 0 min 0 min 0 W/m 0,0 km/h (0 Bft) 97,87 %
03.10.2020 19:34 11,5 C 10,0 C 10,0 C 98 % 991,0 hPa 0,0 l/m 0 min 0 min 0 W/m 12,9 km/h (3 Bft) 97,87 %
03.10.2020 19:36 11,4 C 10,0 C 10,0 C 98 % 991,0 hPa 0,0 l/m 0 min 0 min 0 W/m 3,2 km/h (1 Bft) 97,83 %
03.10.2020 19:38 11,4 C 10,0 C 10,0 C 98 % 991,0 hPa 0,0 l/m 0 min 0 min 0 W/m 0,0 km/h (0 Bft) 97,87 %
03.10.2020 19:40 11,4 C 10,0 C 9,4 C 98 % 991,0 hPa 0,0 l/m 0 min 0 min 0 W/m 12,9 km/h (3 Bft) 97,87 %
03.10.2020 19:42 11,4 C 10,0 C 9,4 C 98 % 991,1 hPa 0,0 l/m 0 min 0 min 0 W/m 19,3 km/h (3 Bft) 97,87 %
03.10.2020 19:44 11,3 C 10,0 C 9,4 C 98 % 991,0 hPa 0,0 l/m 0 min 0 min 0 W/m 0,0 km/h (0 Bft) 97,87 %
03.10.2020 19:46 11,3 C 10,0 C 9,4 C 98 % 991,0 hPa 0,0 l/m 0 min 0 min 0 W/m 3,2 km/h (1 Bft) 97,87 %
03.10.2020 19:48 11,3 C 10,0 C 9,4 C 98 % 991,0 hPa 0,0 l/m 0 min 0 min 0 W/m 3,2 km/h (1 Bft) 97,83 %
03.10.2020 19:50 11,3 C 10,0 C 9,4 C 98 % 991,0 hPa 0,0 l/m 0 min 0 min 0 W/m 6,4 km/h (2 Bft) 97,87 %
03.10.2020 19:52 11,3 C 10,0 C 9,4 C 98 % 991,0 hPa 0,0 l/m 0 min 0 min 0 W/m 3,2 km/h (1 Bft) 95,74 %
03.10.2020 19:54 11,3 C 10,0 C 9,4 C 98 % 991,0 hPa 0,0 l/m 0 min 0 min 0 W/m 12,9 km/h (3 Bft) 100,00 %
03.10.2020 19:56 11,3 C 10,0 C 9,4 C 98 % 991,0 hPa 0,0 l/m 0 min 0 min 0 W/m 3,2 km/h (1 Bft) 100,00 %
03.10.2020 19:58 11,3 C 10,0 C 9,4 C 98 % 991,0 hPa 0,0 l/m 0 min 0 min 0 W/m 0,0 km/h (0 Bft) 100,00 %
03.10.2020 20:00 11,2 C 10,0 C 9,4 C 98 % 991,0 hPa 0,0 l/m 0 min 0 min 0 W/m 0,0 km/h (0 Bft) 100,00 %
03.10.2020 20:02 11,2 C 10,0 C 9,4 C 98 % 990,9 hPa 0,0 l/m 0 min 0 min 0 W/m 0,0 km/h (0 Bft) 100,00 %
03.10.2020 20:04 11,2 C 10,0 C 10,0 C 98 % 990,8 hPa 0,0 l/m 0 min 0 min 0 W/m 0,0 km/h (0 Bft) 100,00 %
03.10.2020 20:06 11,2 C 10,0 C 9,4 C 98 % 990,8 hPa 0,0 l/m 0 min 0 min 0 W/m 3,2 km/h (1 Bft) 100,00 %
03.10.2020 20:08 11,2 C 10,0 C 9,4 C 98 % 990,8 hPa 0,0 l/m 0 min 0 min 0 W/m 6,4 km/h (2 Bft) 100,00 %
03.10.2020 20:10 11,2 C 10,0 C 9,4 C 98 % 990,8 hPa 0,0 l/m 0 min 0 min 0 W/m 0,0 km/h (0 Bft) 100,00 %
03.10.2020 20:12 11,2 C 10,0 C 9,4 C 98 % 990,8 hPa 0,0 l/m 0 min 0 min 0 W/m 0,0 km/h (0 Bft) 100,00 %
03.10.2020 20:14 11,2 C 10,0 C 9,4 C 98 % 990,7 hPa 0,0 l/m 0 min 0 min 0 W/m 3,2 km/h (1 Bft) 97,87 %
03.10.2020 20:16 11,2 C 10,0 C 10,0 C 98 % 990,6 hPa 0,0 l/m 0 min 0 min 0 W/m 3,2 km/h (1 Bft) 100,00 %
03.10.2020 20:18 11,2 C 10,0 C 10,0 C 98 % 990,6 hPa 0,0 l/m 0 min 0 min 0 W/m 12,9 km/h (3 Bft) 97,87 %
03.10.2020 20:20 11,1 C 10,0 C 9,4 C 98 % 990,6 hPa 0,0 l/m 0 min 0 min 0 W/m 6,4 km/h (2 Bft) 100,00 %
03.10.2020 20:22 11,1 C 10,0 C 9,4 C 97 % 990,5 hPa 0,0 l/m 0 min 0 min 0 W/m 0,0 km/h (0 Bft) 100,00 %
03.10.2020 20:24 11,1 C 10,0 C 9,4 C 97 % 990,6 hPa 0,0 l/m 0 min 0 min 0 W/m 0,0 km/h (0 Bft) 100,00 %
03.10.2020 20:26 11,1 C 10,0 C 9,4 C 97 % 990,6 hPa 0,0 l/m 0 min 0 min 0 W/m 12,9 km/h (3 Bft) 100,00 %
03.10.2020 20:28 11,1 C 10,0 C 9,4 C 97 % 990,5 hPa 0,0 l/m 0 min 0 min 0 W/m 6,4 km/h (2 Bft) 97,87 %
03.10.2020 20:30 11,1 C 9,4 C 9,4 C 97 % 990,5 hPa 0,0 l/m 0 min 0 min 0 W/m 3,2 km/h (1 Bft) 100,00 %
03.10.2020 20:32 11,1 C 9,4 C 9,4 C 97 % 990,5 hPa 0,0 l/m 0 min 0 min 0 W/m 6,4 km/h (2 Bft) 100,00 %
03.10.2020 20:34 11,0 C 9,4 C 9,4 C 97 % 990,5 hPa 0,0 l/m 0 min 0 min 0 W/m 6,4 km/h (2 Bft) 100,00 %
03.10.2020 20:36 11,0 C 9,4 C 9,4 C 97 % 990,4 hPa 0,0 l/m 0 min 0 min 0 W/m 12,9 km/h (3 Bft) 97,87 %
03.10.2020 20:38 10,9 C 9,4 C 9,4 C 97 % 990,3 hPa 0,0 l/m 0 min 0 min 0 W/m 6,4 km/h (2 Bft) 95,74 %
03.10.2020 20:40 10,9 C 9,4 C 9,4 C 98 % 990,2 hPa 0,0 l/m 0 min 0 min 0 W/m 16,1 km/h (3 Bft) 97,87 %
03.10.2020 20:42 10,9 C 9,4 C 9,4 C 98 % 990,3 hPa 0,0 l/m 0 min 0 min 0 W/m 6,4 km/h (2 Bft) 97,87 %
03.10.2020 20:44 10,9 C 9,4 C 9,4 C 98 % 990,3 hPa 0,0 l/m 0 min 0 min 0 W/m 6,4 km/h (2 Bft) 97,87 %
03.10.2020 20:46 10,9 C 9,4 C 9,4 C 98 % 990,2 hPa 0,0 l/m 0 min 0 min 0 W/m 12,9 km/h (3 Bft) 95,65 %
03.10.2020 20:48 10,9 C 10,0 C 9,4 C 98 % 990,2 hPa 0,0 l/m 0 min 0 min 0 W/m 12,9 km/h (3 Bft) 97,87 %
03.10.2020 20:50 10,8 C 10,0 C 9,4 C 98 % 990,2 hPa 0,0 l/m 0 min 0 min 0 W/m 12,9 km/h (3 Bft) 55,32 %
03.10.2020 20:52 10,8 C 9,4 C 9,4 C 98 % 990,1 hPa 0,0 l/m 0 min 0 min 0 W/m 0,0 km/h (0 Bft) 97,44 %
03.10.2020 20:54 10,8 C 9,4 C 9,4 C 98 % 990,1 hPa 0,0 l/m 0 min 0 min 0 W/m 6,4 km/h (2 Bft) 97,87 %
03.10.2020 20:56 10,8 C 9,4 C 9,4 C 98 % 990,0 hPa 0,0 l/m 0 min 0 min 0 W/m 12,9 km/h (3 Bft) 95,74 %
03.10.2020 20:58 10,8 C 10,0 C 9,4 C 98 % 990,0 hPa 0,0 l/m 0 min 0 min 0 W/m 9,7 km/h (2 Bft) 93,48 %
03.10.2020 21:00 10,8 C 9,4 C 9,4 C 98 % 990,0 hPa 0,0 l/m 0 min 0 min 0 W/m 6,4 km/h (2 Bft) 97,87 %
03.10.2020 21:02 10,8 C 9,4 C 9,4 C 97 % 990,1 hPa 0,0 l/m 0 min 0 min 0 W/m 3,2 km/h (1 Bft) 95,74 %
03.10.2020 21:04 10,8 C 9,4 C 9,4 C 97 % 990,1 hPa 0,0 l/m 0 min 0 min 0 W/m 3,2 km/h (1 Bft) 97,87 %
03.10.2020 21:06 10,8 C 9,4 C 9,4 C 97 % 990,0 hPa 0,0 l/m 0 min 0 min 0 W/m 0,0 km/h (0 Bft) 97,87 %
03.10.2020 21:08 10,8 C 9,4 C 9,4 C 97 % 990,0 hPa 0,0 l/m 0 min 0 min 0 W/m 3,2 km/h (1 Bft) 97,87 %
03.10.2020 21:10 10,7 C 9,4 C 8,9 C 97 % 990,0 hPa 0,0 l/m 0 min 0 min 0 W/m 0,0 km/h (0 Bft) 97,83 %
03.10.2020 21:12 10,7 C 9,4 C 8,9 C 97 % 989,9 hPa 0,0 l/m 0 min 0 min 0 W/m 3,2 km/h (1 Bft) 95,74 %
03.10.2020 21:14 10,7 C 9,4 C 8,9 C 98 % 989,9 hPa 0,0 l/m 0 min 0 min 0 W/m 3,2 km/h (1 Bft) 97,87 %
03.10.2020 21:16 10,7 C 9,4 C 9,4 C 98 % 989,9 hPa 0,0 l/m 0 min 0 min 0 W/m 0,0 km/h (0 Bft) 95,74 %
03.10.2020 21:18 10,7 C 9,4 C 8,9 C 98 % 990,0 hPa 0,0 l/m 0 min 0 min 0 W/m 0,0 km/h (0 Bft) 95,74 %
03.10.2020 21:20 10,6 C 9,4 C 8,9 C 98 % 990,0 hPa 0,0 l/m 0 min 0 min 0 W/m 0,0 km/h (0 Bft) 97,87 %
03.10.2020 21:22 10,6 C 9,4 C 8,9 C 98 % 990,0 hPa 0,0 l/m 0 min 0 min 0 W/m 0,0 km/h (0 Bft) 97,83 %
03.10.2020 21:24 10,6 C 9,4 C 8,9 C 98 % 990,0 hPa 0,0 l/m 0 min 0 min 0 W/m 0,0 km/h (0 Bft) 97,87 %
03.10.2020 21:26 10,6 C 9,4 C 8,9 C 98 % 990,0 hPa 0,0 l/m 0 min 0 min 0 W/m 0,0 km/h (0 Bft) 95,74 %
03.10.2020 21:28 10,6 C 9,4 C 8,9 C 98 % 990,0 hPa 0,0 l/m 0 min 0 min 0 W/m 0,0 km/h (0 Bft) 100,00 %
03.10.2020 21:30 10,6 C 9,4 C 8,9 C 98 % 990,0 hPa 0,0 l/m 0 min 0 min 0 W/m 6,4 km/h (2 Bft) 100,00 %
03.10.2020 21:32 10,5 C 9,4 C 8,9 C 98 % 990,0 hPa 0,0 l/m 0 min 0 min 0 W/m 0,0 km/h (0 Bft) 97,83 %
03.10.2020 21:34 10,5 C 9,4 C 8,9 C 98 % 989,9 hPa 0,0 l/m 0 min 0 min 0 W/m 3,2 km/h (1 Bft) 97,87 %
03.10.2020 21:36 10,5 C 9,4 C 8,9 C 98 % 990,0 hPa 0,0 l/m 0 min 0 min 0 W/m 0,0 km/h (0 Bft) 97,87 %
03.10.2020 21:38 10,5 C 9,4 C 8,9 C 98 % 989,9 hPa 0,0 l/m 0 min 0 min 0 W/m 0,0 km/h (0 Bft) 94,34 %
03.10.2020 21:40 10,4 C 9,4 C 8,9 C 98 % 989,9 hPa 0,0 l/m 0 min 0 min 0 W/m 0,0 km/h (0 Bft) 100,00 %
03.10.2020 21:42 10,4 C 9,4 C 8,9 C 98 % 989,8 hPa 0,0 l/m 0 min 0 min 0 W/m 0,0 km/h (0 Bft) 97,87 %
03.10.2020 21:44 10,4 C 9,4 C 8,9 C 97 % 989,8 hPa 0,0 l/m 0 min 0 min 0 W/m 3,2 km/h (1 Bft) 100,00 %
03.10.2020 21:46 10,4 C 9,4 C 8,9 C 97 % 989,8 hPa 0,0 l/m 0 min 0 min 0 W/m 3,2 km/h (1 Bft) 100,00 %
03.10.2020 21:48 10,4 C 9,4 C 8,9 C 97 % 989,8 hPa 0,0 l/m 0 min 0 min 0 W/m 0,0 km/h (0 Bft) 97,87 %
03.10.2020 21:50 10,4 C 9,4 C 8,9 C 98 % 989,8 hPa 0,0 l/m 0 min 0 min 0 W/m 3,2 km/h (1 Bft) 100,00 %
03.10.2020 21:52 10,4 C 9,4 C 8,9 C 98 % 989,8 hPa 0,0 l/m 0 min 0 min 0 W/m 3,2 km/h (1 Bft) 100,00 %
03.10.2020 21:54 10,4 C 9,4 C 9,4 C 98 % 989,8 hPa 0,0 l/m 0 min 0 min 0 W/m 3,2 km/h (1 Bft) 97,87 %
03.10.2020 21:56 10,4 C 9,4 C 8,9 C 98 % 989,7 hPa 0,0 l/m 0 min 0 min 0 W/m 0,0 km/h (0 Bft) 95,74 %
03.10.2020 21:58 10,4 C 9,4 C 8,9 C 98 % 989,6 hPa 0,0 l/m 0 min 0 min 0 W/m 19,3 km/h (3 Bft) 95,65 %
03.10.2020 22:00 10,4 C 9,4 C 8,9 C 98 % 989,6 hPa 0,0 l/m 0 min 0 min 0 W/m 25,7 km/h (4 Bft) 97,87 %
03.10.2020 22:02 10,4 C 9,4 C 8,9 C 98 % 989,5 hPa 0,0 l/m 0 min 0 min 0 W/m 25,7 km/h (4 Bft) 95,74 %
03.10.2020 22:04 10,4 C 9,4 C 8,9 C 98 % 989,5 hPa 0,0 l/m 0 min 0 min 0 W/m 19,3 km/h (3 Bft) 97,87 %
03.10.2020 22:06 10,4 C 9,4 C 8,9 C 98 % 989,5 hPa 0,0 l/m 0 min 0 min 0 W/m 6,4 km/h (2 Bft) 97,87 %
03.10.2020 22:08 10,4 C 10,0 C 9,4 C 98 % 989,5 hPa 0,0 l/m 0 min 0 min 0 W/m 22,5 km/h (4 Bft) 97,87 %
03.10.2020 22:10 10,4 C 10,0 C 9,4 C 98 % 989,5 hPa 0,0 l/m 0 min 0 min 0 W/m 19,3 km/h (3 Bft) 97,83 %
03.10.2020 22:12 10,5 C 10,0 C 9,4 C 98 % 989,5 hPa 0,0 l/m 0 min 0 min 0 W/m 16,1 km/h (3 Bft) 95,74 %
03.10.2020 22:14 10,5 C 10,0 C 9,4 C 98 % 989,5 hPa 0,0 l/m 0 min 0 min 0 W/m 22,5 km/h (4 Bft) 97,87 %
03.10.2020 22:16 10,5 C 10,0 C 9,4 C 98 % 989,5 hPa 0,0 l/m 0 min 0 min 0 W/m 3,2 km/h (1 Bft) 95,74 %
03.10.2020 22:18 10,6 C 10,0 C 9,4 C 98 % 989,5 hPa 0,0 l/m 0 min 0 min 0 W/m 19,3 km/h (3 Bft) 95,74 %
03.10.2020 22:20 10,6 C 10,0 C 9,4 C 98 % 989,5 hPa 0,0 l/m 0 min 0 min 0 W/m 19,3 km/h (3 Bft) 95,74 %
03.10.2020 22:22 10,6 C 10,0 C 9,4 C 98 % 989,5 hPa 0,0 l/m 0 min 0 min 0 W/m 25,7 km/h (4 Bft) 95,65 %
03.10.2020 22:24 10,6 C 10,0 C 9,4 C 98 % 989,5 hPa 0,0 l/m 0 min 0 min 0 W/m 12,9 km/h (3 Bft) 95,74 %
03.10.2020 22:26 10,6 C 10,0 C 9,4 C 98 % 989,5 hPa 0,0 l/m 0 min 0 min 0 W/m 22,5 km/h (4 Bft) 95,74 %
03.10.2020 22:28 10,6 C 10,0 C 9,4 C 98 % 989,5 hPa 0,0 l/m 0 min 0 min 0 W/m 12,9 km/h (3 Bft) 95,74 %
03.10.2020 22:30 10,7 C 10,0 C 9,4 C 98 % 989,4 hPa 0,0 l/m 0 min 0 min 0 W/m 16,1 km/h (3 Bft) 95,74 %
03.10.2020 22:32 10,7 C 10,0 C 9,4 C 98 % 989,4 hPa 0,0 l/m 0 min 0 min 0 W/m 6,4 km/h (2 Bft) 91,49 %
03.10.2020 22:34 10,7 C 10,0 C 9,4 C 98 % 989,4 hPa 0,0 l/m 0 min 0 min 0 W/m 12,9 km/h (3 Bft) 95,65 %
03.10.2020 22:36 10,7 C 10,0 C 9,4 C 98 % 989,4 hPa 0,0 l/m 0 min 0 min 0 W/m 19,3 km/h (3 Bft) 95,74 %
03.10.2020 22:38 10,7 C 10,0 C 9,4 C 98 % 989,4 hPa 0,0 l/m 0 min 0 min 0 W/m 12,9 km/h (3 Bft) 95,74 %
03.10.2020 22:40 10,7 C 10,0 C 9,4 C 98 % 989,4 hPa 0,0 l/m 0 min 0 min 0 W/m 25,7 km/h (4 Bft) 95,74 %
03.10.2020 22:42 10,7 C 10,0 C 9,4 C 98 % 989,3 hPa 0,0 l/m 0 min 0 min 0 W/m 25,7 km/h (4 Bft) 95,74 %
03.10.2020 22:44 10,8 C 10,0 C 9,4 C 98 % 989,3 hPa 0,0 l/m 0 min 0 min 0 W/m 25,7 km/h (4 Bft) 95,74 %
03.10.2020 22:46 10,7 C 10,0 C 9,4 C 98 % 989,3 hPa 0,0 l/m 0 min 0 min 0 W/m 19,3 km/h (3 Bft) 97,83 %
03.10.2020 22:48 10,8 C 10,0 C 9,4 C 98 % 989,3 hPa 0,0 l/m 0 min 0 min 0 W/m 35,4 km/h (5 Bft) 97,87 %
03.10.2020 22:50 10,8 C 10,0 C 9,4 C 98 % 989,2 hPa 0,0 l/m 0 min 0 min 0 W/m 19,3 km/h (3 Bft) 97,87 %
03.10.2020 22:52 10,8 C 10,0 C 9,4 C 98 % 989,2 hPa 0,0 l/m 0 min 0 min 0 W/m 19,3 km/h (3 Bft) 97,87 %
03.10.2020 22:54 10,8 C 10,0 C 8,9 C 98 % 989,2 hPa 0,0 l/m 0 min 0 min 0 W/m 16,1 km/h (3 Bft) 95,74 %
03.10.2020 22:56 10,7 C 10,0 C 8,9 C 97 % 989,3 hPa 0,0 l/m 0 min 0 min 0 W/m 19,3 km/h (3 Bft) 93,48 %
03.10.2020 22:58 10,7 C 10,0 C 8,9 C 97 % 989,3 hPa 0,0 l/m 0 min 0 min 0 W/m 22,5 km/h (4 Bft) 97,87 %
03.10.2020 23:00 10,7 C 10,0 C 8,9 C 97 % 989,2 hPa 0,0 l/m 0 min 0 min 0 W/m 19,3 km/h (3 Bft) 97,87 %
03.10.2020 23:02 10,7 C 10,0 C 8,9 C 97 % 989,2 hPa 0,0 l/m 0 min 0 min 0 W/m 19,3 km/h (3 Bft) 97,87 %
03.10.2020 23:04 10,7 C 10,0 C 8,9 C 97 % 989,2 hPa 0,0 l/m 0 min 0 min 0 W/m 22,5 km/h (4 Bft) 97,87 %
03.10.2020 23:06 10,7 C 10,0 C 8,9 C 97 % 989,2 hPa 0,0 l/m 0 min 0 min 0 W/m 16,1 km/h (3 Bft) 93,62 %
03.10.2020 23:08 10,7 C 10,0 C 8,9 C 97 % 989,2 hPa 0,0 l/m 0 min 0 min 0 W/m 25,7 km/h (4 Bft) 97,83 %
03.10.2020 23:10 10,7 C 10,6 C 8,9 C 97 % 989,1 hPa 0,0 l/m 0 min 0 min 0 W/m 25,7 km/h (4 Bft) 97,87 %
03.10.2020 23:12 10,7 C 10,0 C 8,9 C 97 % 989,1 hPa 0,0 l/m 0 min 0 min 0 W/m 16,1 km/h (3 Bft) 97,87 %
03.10.2020 23:14 10,7 C 10,0 C 8,9 C 97 % 989,0 hPa 0,0 l/m 0 min 0 min 0 W/m 22,5 km/h (4 Bft) 97,87 %
03.10.2020 23:16 10,7 C 10,0 C 8,9 C 97 % 989,0 hPa 0,0 l/m 0 min 0 min 0 W/m 16,1 km/h (3 Bft) 97,87 %
03.10.2020 23:18 10,7 C 10,0 C 8,9 C 97 % 989,0 hPa 0,0 l/m 0 min 0 min 0 W/m 16,1 km/h (3 Bft) 97,87 %
03.10.2020 23:20 10,7 C 10,0 C 8,9 C 97 % 989,0 hPa 0,0 l/m 0 min 0 min 0 W/m 25,7 km/h (4 Bft) 97,83 %
03.10.2020 23:22 10,7 C 10,6 C 8,9 C 97 % 989,0 hPa 0,0 l/m 0 min 0 min 0 W/m 29,0 km/h (5 Bft) 100,00 %
03.10.2020 23:24 10,7 C 10,6 C 8,9 C 97 % 989,0 hPa 0,0 l/m 0 min 0 min 0 W/m 29,0 km/h (5 Bft) 100,00 %
03.10.2020 23:26 10,8 C 10,6 C 8,9 C 96 % 988,9 hPa 0,0 l/m 0 min 0 min 0 W/m 22,5 km/h (4 Bft) 100,00 %
03.10.2020 23:28 10,8 C 10,6 C 8,9 C 96 % 988,9 hPa 0,0 l/m 0 min 0 min 0 W/m 22,5 km/h (4 Bft) 97,87 %
03.10.2020 23:30 10,8 C 10,0 C 8,9 C 96 % 988,9 hPa 0,0 l/m 0 min 0 min 0 W/m 19,3 km/h (3 Bft) 97,87 %
03.10.2020 23:32 10,8 C 10,0 C 8,9 C 96 % 988,9 hPa 0,0 l/m 0 min 0 min 0 W/m 19,3 km/h (3 Bft) 97,83 %
03.10.2020 23:34 10,8 C 10,0 C 8,9 C 96 % 988,9 hPa 0,0 l/m 0 min 0 min 0 W/m 25,7 km/h (4 Bft) 97,87 %
03.10.2020 23:36 10,8 C 10,0 C 8,9 C 96 % 988,8 hPa 0,0 l/m 0 min 0 min 0 W/m 29,0 km/h (5 Bft) 97,87 %
03.10.2020 23:38 10,8 C 10,0 C 8,9 C 96 % 988,8 hPa 0,0 l/m 0 min 0 min 0 W/m 19,3 km/h (3 Bft) 97,87 %
03.10.2020 23:40 10,8 C 10,0 C 8,9 C 96 % 988,8 hPa 0,0 l/m 0 min 0 min 0 W/m 19,3 km/h (3 Bft) 95,74 %
03.10.2020 23:42 10,8 C 10,0 C 8,9 C 96 % 988,8 hPa 0,0 l/m 0 min 0 min 0 W/m 19,3 km/h (3 Bft) 97,87 %
03.10.2020 23:44 10,8 C 10,0 C 9,4 C 96 % 988,8 hPa 0,0 l/m 0 min 0 min 0 W/m 16,1 km/h (3 Bft) 97,83 %
03.10.2020 23:46 10,8 C 10,6 C 9,4 C 96 % 988,7 hPa 0,0 l/m 0 min 0 min 0 W/m 25,7 km/h (4 Bft) 95,74 %
03.10.2020 23:48 10,9 C 10,6 C 9,4 C 96 % 988,7 hPa 0,0 l/m 0 min 0 min 0 W/m 25,7 km/h (4 Bft) 95,74 %
03.10.2020 23:50 10,9 C 10,6 C 9,4 C 96 % 988,7 hPa 0,0 l/m 0 min 0 min 0 W/m 22,5 km/h (4 Bft) 97,87 %
03.10.2020 23:52 10,9 C 10,6 C 9,4 C 96 % 988,7 hPa 0,0 l/m 0 min 0 min 0 W/m 16,1 km/h (3 Bft) 97,87 %
03.10.2020 23:54 10,9 C 10,0 C 9,4 C 96 % 988,6 hPa 0,0 l/m 0 min 0 min 0 W/m 25,7 km/h (4 Bft) 97,83 %
03.10.2020 23:56 10,9 C 10,0 C 9,4 C 96 % 988,6 hPa 0,0 l/m 0 min 2 min 0 W/m 19,3 km/h (3 Bft) 97,87 %
03.10.2020 23:58 10,9 C 10,0 C 9,4 C 95 % 988,6 hPa 0,0 l/m 0 min 2 min 0 W/m 22,5 km/h (4 Bft) 95,74 %
_ Min-Zeit 21:40 20:30 21:10 00:00 04:16 - - - - 00:00 00:02
Minimum _ 10,4 C 9,4 C 8,9 C 89 % 987,7 hPa - - - - 0,0 km/h (0 Bft) 13,33 %
_ Max-Zeit 00:00 00:00 00:00 09:42 16:12 08:16 18:26 00:40 09:24 22:48 00:00
Maximum _ 15,7 C 15,0 C 13,9 C 98 % 992,3 hPa 0,2 l/m 2 min 2 min 108 W/m 35,4 km/h
O-SO (5 Bft)
100,00 %
Durchschnitt _ 13,1 C 12,0 C 11,6 C 95 % 989,8 hPa #4,8 l/m #28 min. #4:30 h 45 W/m 5,5 km/h (1 Bft) 97,13 %
© 2020 W. Hausmann